Observation data for Menard on 01/19/2019      Previous  Date  Next       Current Mesonet Observations  Soil Data  Daily Summary Page  Observations in Plain Language
KMD1 190600Z 31015KT 16/M02 A299 RMK A01 T01571023  RH  029%=      5-min Rain = 0
KMD1 190601Z 29011G16KT 16/M02 A2991 RMK A01 T01571019  RH  030%=      5-min Rain = 0
KMD1 190602Z 29015KT 16/M02 A2991 RMK A01 T01571021  RH  029%=      5-min Rain = 0
KMD1 190603Z 30013G18KT 16/M02 A2991 RMK A01 T01571017  RH  030%=      5-min Rain = 0
KMD1 190604Z 30012KT 16/M02 A2991 RMK A01 T01561018  RH  030%=      5-min Rain = 0
KMD1 190605Z 30013G18KT 16/M02 A2991 RMK A01 T01551017  RH  031%=      5-min Rain = 0
KMD1 190606Z 30012KT 16/M02 A2991 RMK A01 T01551016  RH  031%=      5-min Rain = 0
KMD1 190607Z 31013KT 15/M02 A2991 RMK A01 T01541015  RH  031%=      5-min Rain = 0
KMD1 190608Z 32014KT 15/M02 A2991 RMK A01 T01541016  RH  031%=      5-min Rain = 0
KMD1 190609Z 31011KT 15/M01 A2992 RMK A01 T01541014  RH  031%=      5-min Rain = 0
KMD1 190610Z 30013KT 15/M01 A2991 RMK A01 T01541011  RH  032%=      5-min Rain = 0
KMD1 190611Z 30017KT 15/M01 A2991 RMK A01 T01541008  RH  033%=      5-min Rain = 0
KMD1 190612Z 30019KT 15/M01 A2992 RMK A01 T01531005  RH  034%=      5-min Rain = 0
KMD1 190613Z 32018KT 15/M00 A2992 RMK A01 T01521003  RH  035%=      5-min Rain = 0
KMD1 190614Z 31016KT 15/M00 A2992 RMK A01 T01521001  RH  035%=      5-min Rain = 0
KMD1 190615Z 31014KT 15/00 A2992 RMK A01 T01510002  RH  036%=      5-min Rain = 0
KMD1 190616Z 32016G22KT 15/01 A2992 RMK A01 T01490006  RH  038%=      5-min Rain = 0
KMD1 190617Z 31020G27KT 15/01 A2992 RMK A01 T01480009  RH  039%=      5-min Rain = 0
KMD1 190618Z 32021KT 15/01 A2992 RMK A01 T01470010  RH  039%=      5-min Rain = 0
KMD1 190619Z 31021KT 15/01 A2992 RMK A01 T01470012  RH  040%=      5-min Rain = 0
KMD1 190620Z 31023G29KT 15/01 A2992 RMK A01 T01460013  RH  040%=      5-min Rain = 0
KMD1 190621Z 31019G24KT 15/01 A2992 RMK A01 T01450014  RH  041%=      5-min Rain = 0
KMD1 190622Z 32019G24KT 14/02 A2992 RMK A01 T01440015  RH  042%=      5-min Rain = 0
KMD1 190623Z 32020G26KT 14/02 A2992 RMK A01 T01430016  RH  042%=      5-min Rain = 0
KMD1 190624Z 31015G20KT 14/02 A2993 RMK A01 T01420017  RH  042%=      5-min Rain = 0
KMD1 190625Z 30014G20KT 14/02 A2993 RMK A01 T01410018  RH  043%=      5-min Rain = 0
KMD1 190626Z 30012G18KT 14/02 A2993 RMK A01 T01410018  RH  043%=      5-min Rain = 0
KMD1 190627Z 30015G24KT 14/02 A2992 RMK A01 T01400018  RH  044%=      5-min Rain = 0
KMD1 190628Z 30016G21KT 14/02 A2992 RMK A01 T01390019  RH  044%=      5-min Rain = 0
KMD1 190629Z 31017KT 14/02 A2992 RMK A01 T01380019  RH  044%=      5-min Rain = 0
KMD1 190630Z 30020G25KT 14/02 A2993 RMK A01 T01380019  RH  045%=      5-min Rain = 0
KMD1 190631Z 31019KT 14/02 A2993 RMK A01 T01380020  RH  045%=      5-min Rain = 0
KMD1 190632Z 31012G17KT 14/02 A2993 RMK A01 T01370020  RH  045%=      5-min Rain = 0
KMD1 190633Z 30012KT 14/02 A2993 RMK A01 T01360021  RH  046%=      5-min Rain = 0
KMD1 190634Z 30014G20KT 13/02 A2993 RMK A01 T01340022  RH  046%=      5-min Rain = 0
KMD1 190635Z 31012KT 13/02 A2993 RMK A01 T01330022  RH  047%=      5-min Rain = 0
KMD1 190636Z 30017KT 13/02 A2993 RMK A01 T01320022  RH  047%=      5-min Rain = 0
KMD1 190637Z 31021G26KT 13/02 A2993 RMK A01 T01320022  RH  047%=      5-min Rain = 0
KMD1 190638Z 32019KT 13/02 A2993 RMK A01 T01320023  RH  047%=      5-min Rain = 0
KMD1 190639Z 31018KT 13/02 A2993 RMK A01 T01310022  RH  048%=      5-min Rain = 0
KMD1 190640Z 31017KT 13/02 A2994 RMK A01 T01310023  RH  048%=      5-min Rain = 0
KMD1 190641Z 31017G24KT 13/02 A2994 RMK A01 T01300024  RH  048%=      5-min Rain = 0
KMD1 190642Z 32020KT 13/02 A2994 RMK A01 T01290024  RH  049%=      5-min Rain = 0
KMD1 190643Z 31020KT 13/02 A2994 RMK A01 T01290024  RH  049%=      5-min Rain = 0
KMD1 190644Z 32020KT 13/03 A2994 RMK A01 T01290025  RH  049%=      5-min Rain = 0
KMD1 190645Z 32018G23KT 13/03 A2994 RMK A01 T01290025  RH  049%=      5-min Rain = 0
KMD1 190646Z 31020KT 13/03 A2994 RMK A01 T01290025  RH  049%=      5-min Rain = 0
KMD1 190647Z 32019KT 13/03 A2994 RMK A01 T01280026  RH  050%=      5-min Rain = 0
KMD1 190648Z 31020G26KT 13/03 A2994 RMK A01 T01270026  RH  050%=      5-min Rain = 0
KMD1 190649Z 31018KT 13/03 A2994 RMK A01 T01270026  RH  050%=      5-min Rain = 0
KMD1 190650Z 31019G24KT 13/03 A2994 RMK A01 T01260026  RH  051%=      5-min Rain = 0
KMD1 190651Z 30019KT 13/03 A2994 RMK A01 T01260026  RH  051%=      5-min Rain = 0
KMD1 190652Z 30017G22KT 13/03 A2995 RMK A01 T01260027  RH  051%=      5-min Rain = 0
KMD1 190653Z 31018G23KT 13/03 A2995 RMK A01 T01250028  RH  051%=      5-min Rain = 0
KMD1 190654Z 31021KT 13/03 A2995 RMK A01 T01250027  RH  051%=      5-min Rain = 0
KMD1 190655Z 31023G28KT 12/03 A2995 RMK A01 T01240027  RH  051%=      5-min Rain = 0
KMD1 190656Z 31019G24KT 13/03 A2995 RMK A01 T01250027  RH  051%=      5-min Rain = 0
KMD1 190657Z 31017KT 12/03 A2995 RMK A01 T01240027  RH  051%=      5-min Rain = 0
KMD1 190658Z 30021G27KT 12/03 A2995 RMK A01 T01240028  RH  052%=      5-min Rain = 0
KMD1 190659Z 31025KT 12/03 A2995 RMK A01 T01230028  RH  052%=      5-min Rain = 0
KMD1 190700Z 31019KT 12/03 A2995 RMK A01 T01230028  RH  052%=      5-min Rain = 0
KMD1 190701Z 31018G23KT 12/03 A2995 RMK A01 T01230028  RH  052%=      5-min Rain = 0
KMD1 190702Z 31015KT 12/03 A2996 RMK A01 T01230028  RH  053%=      5-min Rain = 0
KMD1 190703Z 31016KT 12/03 A2996 RMK A01 T01210028  RH  053%=      5-min Rain = 0
KMD1 190704Z 31014KT 12/03 A2996 RMK A01 T01210029  RH  053%=      5-min Rain = 0
KMD1 190705Z 32014KT 12/03 A2996 RMK A01 T01210028  RH  053%=      5-min Rain = 0
KMD1 190706Z 33016G21KT 12/03 A2996 RMK A01 T01190026  RH  053%=      5-min Rain = 0
KMD1 190707Z 34020G25KT 12/02 A2997 RMK A01 T01160023  RH  053%=      5-min Rain = 0
KMD1 190708Z 33021KT 11/02 A2997 RMK A01 T01130021  RH  053%=      5-min Rain = 0
KMD1 190709Z 33019G26KT 11/02 A2997 RMK A01 T01110021  RH  054%=      5-min Rain = 0
KMD1 190710Z 33021G27KT 11/02 A2997 RMK A01 T01100020  RH  054%=      5-min Rain = 0
KMD1 190711Z 33019G25KT 11/02 A2997 RMK A01 T01090020  RH  054%=      5-min Rain = 0
KMD1 190712Z 32022G27KT 11/02 A2997 RMK A01 T01080020  RH  054%=      5-min Rain = 0
KMD1 190713Z 32020KT 11/02 A2997 RMK A01 T01070019  RH  055%=      5-min Rain = 0
KMD1 190714Z 32021KT 11/02 A2998 RMK A01 T01060019  RH  055%=      5-min Rain = 0
KMD1 190715Z 32017KT 11/02 A2997 RMK A01 T01050019  RH  055%=      5-min Rain = 0
KMD1 190716Z 32014KT 10/02 A2998 RMK A01 T01040019  RH  056%=      5-min Rain = 0
KMD1 190717Z 32013KT 10/02 A2998 RMK A01 T01030019  RH  056%=      5-min Rain = 0
KMD1 190718Z 31012KT 10/02 A2998 RMK A01 T01020020  RH  057%=      5-min Rain = 0
KMD1 190719Z 33013G19KT 10/02 A2998 RMK A01 T01010019  RH  057%=      5-min Rain = 0
KMD1 190720Z 32017KT 10/02 A2998 RMK A01 T01010019  RH  057%=      5-min Rain = 0
KMD1 190721Z 32017KT 10/02 A2998 RMK A01 T01010019  RH  057%=      5-min Rain = 0
KMD1 190722Z 33013G18KT 10/02 A2998 RMK A01 T01000019  RH  057%=      5-min Rain = 0
KMD1 190723Z 32014KT 10/02 A2998 RMK A01 T00990018  RH  057%=      5-min Rain = 0
KMD1 190724Z 33015G21KT 10/02 A2998 RMK A01 T00980017  RH  057%=      5-min Rain = 0
KMD1 190725Z 33014G20KT 10/02 A2998 RMK A01 T00980017  RH  057%=      5-min Rain = 0
KMD1 190726Z 33012KT 10/02 A2998 RMK A01 T00970017  RH  057%=      5-min Rain = 0
KMD1 190727Z 33013KT 10/02 A2998 RMK A01 T00970018  RH  058%=      5-min Rain = 0
KMD1 190728Z 33011KT 10/02 A2998 RMK A01 T00960017  RH  058%=      5-min Rain = 0
KMD1 190729Z 33014G19KT 10/02 A2998 RMK A01 T00950017  RH  058%=      5-min Rain = 0
KMD1 190730Z 33012G17KT 09/02 A2998 RMK A01 T00940017  RH  059%=      5-min Rain = 0
KMD1 190731Z 33011KT 09/02 A2998 RMK A01 T00940017  RH  059%=      5-min Rain = 0
KMD1 190732Z 32017KT 09/02 A2998 RMK A01 T00930017  RH  059%=      5-min Rain = 0
KMD1 190733Z 33015KT 09/02 A2998 RMK A01 T00930017  RH  059%=      5-min Rain = 0
KMD1 190734Z 33014KT 09/02 A2998 RMK A01 T00930017  RH  059%=      5-min Rain = 0
KMD1 190735Z 34014KT 09/02 A2998 RMK A01 T00920017  RH  059%=      5-min Rain = 0
KMD1 190736Z 33011KT 09/02 A2998 RMK A01 T00910017  RH  059%=      5-min Rain = 0
KMD1 190737Z 33012G17KT 09/02 A2998 RMK A01 T00900016  RH  060%=      5-min Rain = 0
KMD1 190738Z 34017KT 09/02 A2998 RMK A01 T00890016  RH  060%=      5-min Rain = 0
KMD1 190739Z 34017KT 09/02 A2998 RMK A01 T00890016  RH  060%=      5-min Rain = 0
KMD1 190740Z 33013G18KT 09/02 A2998 RMK A01 T00890015  RH  060%=      5-min Rain = 0
KMD1 190741Z 32011G18KT 09/02 A2998 RMK A01 T00880016  RH  060%=      5-min Rain = 0
KMD1 190742Z 34019G26KT 09/02 A2998 RMK A01 T00880015  RH  060%=      5-min Rain = 0
KMD1 190743Z 33016G22KT 09/01 A2998 RMK A01 T00880014  RH  060%=      5-min Rain = 0
KMD1 190744Z 32014KT 09/01 A2998 RMK A01 T00880014  RH  060%=      5-min Rain = 0
KMD1 190745Z 32019KT 09/01 A2998 RMK A01 T00870013  RH  060%=      5-min Rain = 0
KMD1 190746Z 33016KT 09/01 A2998 RMK A01 T00870013  RH  060%=      5-min Rain = 0
KMD1 190747Z 32020G26KT 09/01 A2998 RMK A01 T00870013  RH  059%=      5-min Rain = 0
KMD1 190748Z 33017KT 09/01 A2998 RMK A01 T00870012  RH  059%=      5-min Rain = 0
KMD1 190749Z 32018G25KT 09/01 A2999 RMK A01 T00870013  RH  060%=      5-min Rain = 0
KMD1 190750Z 32019G24KT 09/01 A2999 RMK A01 T00870012  RH  060%=      5-min Rain = 0
KMD1 190751Z 32018KT 09/01 A2999 RMK A01 T00870013  RH  059%=      5-min Rain = 0
KMD1 190752Z 32020G25KT 09/01 A2999 RMK A01 T00870013  RH  060%=      5-min Rain = 0
KMD1 190753Z 32018G25KT 09/01 A2999 RMK A01 T00870013  RH  060%=      5-min Rain = 0
KMD1 190754Z 32019KT 09/01 A2999 RMK A01 T00870013  RH  060%=      5-min Rain = 0
KMD1 190755Z 32016KT 09/01 A2999 RMK A01 T00870012  RH  059%=      5-min Rain = 0
KMD1 190756Z 32016KT 09/01 A2999 RMK A01 T00870013  RH  060%=      5-min Rain = 0
KMD1 190757Z 31019G24KT 09/01 A2999 RMK A01 T00870012  RH  059%=      5-min Rain = 0
KMD1 190758Z 32017G23KT 09/01 A2999 RMK A01 T00870012  RH  059%=      5-min Rain = 0
KMD1 190759Z 31016G21KT 09/01 A2999 RMK A01 T00870012  RH  059%=      5-min Rain = 0
KMD1 190800Z 33023G29KT 09/01 A2999 RMK A01 T00870011  RH  059%=      5-min Rain = 0
KMD1 190801Z 32024G29KT 09/01 A2999 RMK A01 T00870009  RH  058%=      5-min Rain = 0
KMD1 190802Z 32024G33KT 09/01 A30 RMK A01 T00870008  RH  057%=      5-min Rain = 0
KMD1 190803Z 33024KT 09/00 A30 RMK A01 T00870001  RH  055%=      5-min Rain = 0
KMD1 190804Z 33025G31KT 09/M01 A30 RMK A01 T00851006  RH  053%=      5-min Rain = 0
KMD1 190805Z 33022G29KT 08/M01 A30 RMK A01 T00841008  RH  052%=      5-min Rain = 0
KMD1 190806Z 33023KT 08/M01 A30 RMK A01 T00821009  RH  053%=      5-min Rain = 0
KMD1 190807Z 32021KT 08/M01 A30 RMK A01 T00821009  RH  053%=      5-min Rain = 0
KMD1 190808Z 32020KT 08/M01 A30 RMK A01 T00821008  RH  053%=      5-min Rain = 0
KMD1 190809Z 32020G27KT 08/M01 A30 RMK A01 T00811008  RH  053%=      5-min Rain = 0
KMD1 190810Z 32018G23KT 08/M01 A30 RMK A01 T00811007  RH  054%=      5-min Rain = 0
KMD1 190811Z 33019KT 08/M01 A30 RMK A01 T00801008  RH  054%=      5-min Rain = 0
KMD1 190812Z 32017G22KT 08/M01 A30 RMK A01 T00801009  RH  053%=      5-min Rain = 0
KMD1 190813Z 32017G23KT 08/M01 A30 RMK A01 T00801008  RH  054%=      5-min Rain = 0
KMD1 190814Z 32016KT 08/M01 A3001 RMK A01 T00801008  RH  054%=      5-min Rain = 0
KMD1 190815Z 32017KT 08/M01 A3001 RMK A01 T00801008  RH  054%=      5-min Rain = 0
KMD1 190816Z 31017KT 08/M01 A3001 RMK A01 T00791008  RH  054%=      5-min Rain = 0
KMD1 190817Z 31018KT 08/M01 A3001 RMK A01 T00791008  RH  054%=      5-min Rain = 0
KMD1 190818Z 31020G29KT 08/M01 A3001 RMK A01 T00791008  RH  054%=      5-min Rain = 0
KMD1 190819Z 31019G26KT 08/M01 A3002 RMK A01 T00791009  RH  054%=      5-min Rain = 0
KMD1 190820Z 31017G22KT 08/M01 A3002 RMK A01 T00781008  RH  054%=      5-min Rain = 0
KMD1 190821Z 31020G25KT 08/M01 A3002 RMK A01 T00771009  RH  054%=      5-min Rain = 0
KMD1 190822Z 31020G25KT 08/M01 A3002 RMK A01 T00761010  RH  054%=      5-min Rain = 0
KMD1 190823Z 30020G26KT 08/M01 A3002 RMK A01 T00761010  RH  055%=      5-min Rain = 0
KMD1 190824Z 31020G25KT 08/M01 A3002 RMK A01 T00751010  RH  055%=      5-min Rain = 0
KMD1 190825Z 31016G21KT 08/M01 A3002 RMK A01 T00751010  RH  055%=      5-min Rain = 0
KMD1 190826Z 31014G22KT 07/M01 A3002 RMK A01 T00741009  RH  055%=      5-min Rain = 0
KMD1 190827Z 31020KT 07/M01 A3002 RMK A01 T00731009  RH  056%=      5-min Rain = 0
KMD1 190828Z 32018KT 07/M01 A3002 RMK A01 T00731010  RH  056%=      5-min Rain = 0
KMD1 190829Z 31015G20KT 07/M01 A3002 RMK A01 T00731010  RH  056%=      5-min Rain = 0
KMD1 190830Z 31013KT 07/M01 A3002 RMK A01 T00731009  RH  056%=      5-min Rain = 0
KMD1 190831Z 32011KT 07/M01 A3002 RMK A01 T00721009  RH  056%=      5-min Rain = 0
KMD1 190832Z 31013G19KT 07/M01 A3002 RMK A01 T00711009  RH  056%=      5-min Rain = 0
KMD1 190833Z 31013G18KT 07/M01 A3003 RMK A01 T00711009  RH  057%=      5-min Rain = 0
KMD1 190834Z 32016KT 07/M01 A3003 RMK A01 T00701009  RH  057%=      5-min Rain = 0
KMD1 190835Z 31014KT 07/M01 A3003 RMK A01 T00701010  RH  057%=      5-min Rain = 0
KMD1 190836Z 31015KT 07/M01 A3003 RMK A01 T00701009  RH  057%=      5-min Rain = 0
KMD1 190837Z 31013KT 07/M01 A3003 RMK A01 T00701009  RH  057%=      5-min Rain = 0
KMD1 190838Z 31013G19KT 07/M01 A3003 RMK A01 T00691009  RH  058%=      5-min Rain = 0
KMD1 190839Z 32014KT 07/M01 A3003 RMK A01 T00691009  RH  058%=      5-min Rain = 0
KMD1 190840Z 31017G22KT 07/M01 A3003 RMK A01 T00691010  RH  057%=      5-min Rain = 0
KMD1 190841Z 31016KT 07/M01 A3003 RMK A01 T00691009  RH  058%=      5-min Rain = 0
KMD1 190842Z 32015G20KT 07/M01 A3003 RMK A01 T00681008  RH  058%=      5-min Rain = 0
KMD1 190843Z 32014KT 07/M01 A3003 RMK A01 T00681009  RH  058%=      5-min Rain = 0
KMD1 190844Z 33014KT 07/M01 A3003 RMK A01 T00681009  RH  058%=      5-min Rain = 0
KMD1 190845Z 33010G15KT 07/M01 A3004 RMK A01 T00681009  RH  058%=      5-min Rain = 0
KMD1 190846Z 33013G18KT 07/M01 A3004 RMK A01 T00671008  RH  058%=      5-min Rain = 0
KMD1 190847Z 33011KT 07/M01 A3004 RMK A01 T00671009  RH  058%=      5-min Rain = 0
KMD1 190848Z 33013G22KT 07/M01 A3004 RMK A01 T00671008  RH  059%=      5-min Rain = 0
KMD1 190849Z 32014G19KT 07/M01 A3003 RMK A01 T00671010  RH  058%=      5-min Rain = 0
KMD1 190850Z 33014KT 07/M01 A3004 RMK A01 T00671010  RH  058%=      5-min Rain = 0
KMD1 190851Z 31014KT 07/M01 A3003 RMK A01 T00661010  RH  058%=      5-min Rain = 0
KMD1 190852Z 31013G19KT 07/M01 A3004 RMK A01 T00671011  RH  058%=      5-min Rain = 0
KMD1 190853Z 32018G25KT 07/M01 A3004 RMK A01 T00661011  RH  058%=      5-min Rain = 0
KMD1 190854Z 31014KT 07/M01 A3004 RMK A01 T00661012  RH  058%=      5-min Rain = 0
KMD1 190855Z 32018G27KT 07/M01 A3004 RMK A01 T00661012  RH  058%=      5-min Rain = 0
KMD1 190856Z 32019KT 07/M01 A3004 RMK A01 T00661012  RH  057%=      5-min Rain = 0
KMD1 190857Z 32022KT 07/M01 A3004 RMK A01 T00661013  RH  057%=      5-min Rain = 0
KMD1 190858Z 31016G21KT 07/M01 A3004 RMK A01 T00661014  RH  057%=      5-min Rain = 0
KMD1 190859Z 31018KT 07/M01 A3004 RMK A01 T00661013  RH  057%=      5-min Rain = 0
KMD1 190900Z 31017KT 07/M01 A3004 RMK A01 T00661013  RH  057%=      5-min Rain = 0
KMD1 190901Z 31015KT 07/M01 A3004 RMK A01 T00661013  RH  057%=      5-min Rain = 0
KMD1 190902Z 31016G21KT 07/M01 A3004 RMK A01 T00651014  RH  057%=      5-min Rain = 0
KMD1 190903Z 31019G25KT 07/M01 A3004 RMK A01 T00651013  RH  057%=      5-min Rain = 0
KMD1 190904Z 32019KT 07/M01 A3004 RMK A01 T00651013  RH  057%=      5-min Rain = 0
KMD1 190905Z 31017G25KT 07/M01 A3004 RMK A01 T00651014  RH  057%=      5-min Rain = 0
KMD1 190906Z 32017G25KT 07/M01 A3004 RMK A01 T00651013  RH  057%=      5-min Rain = 0
KMD1 190907Z 32019G25KT 06/M01 A3004 RMK A01 T00641014  RH  057%=      5-min Rain = 0
KMD1 190908Z 31017KT 06/M02 A3004 RMK A01 T00641015  RH  057%=      5-min Rain = 0
KMD1 190909Z 31013KT 06/M01 A3005 RMK A01 T00641013  RH  058%=      5-min Rain = 0
KMD1 190910Z 31022G27KT 06/M01 A3004 RMK A01 T00641014  RH  057%=      5-min Rain = 0
KMD1 190911Z 31018G29KT 06/M01 A3005 RMK A01 T00641014  RH  057%=      5-min Rain = 0
KMD1 190912Z 31021KT 06/M01 A3004 RMK A01 T00641014  RH  057%=      5-min Rain = 0
KMD1 190913Z 31020G26KT 06/M01 A3005 RMK A01 T00641014  RH  057%=      5-min Rain = 0
KMD1 190914Z 31019KT 07/M01 A3005 RMK A01 T00651014  RH  057%=      5-min Rain = 0
KMD1 190915Z 32023G33KT 06/M02 A3005 RMK A01 T00641015  RH  057%=      5-min Rain = 0
KMD1 190916Z 32024G34KT 07/M02 A3005 RMK A01 T00651015  RH  057%=      5-min Rain = 0
KMD1 190917Z 32019G25KT 07/M02 A3005 RMK A01 T00651015  RH  057%=      5-min Rain = 0
KMD1 190918Z 31016G22KT 07/M01 A3005 RMK A01 T00651013  RH  057%=      5-min Rain = 0
KMD1 190919Z 31015KT 07/M01 A3005 RMK A01 T00651013  RH  057%=      5-min Rain = 0
KMD1 190920Z 31016KT 07/M01 A3005 RMK A01 T00651013  RH  058%=      5-min Rain = 0
KMD1 190921Z 31014KT 07/M01 A3005 RMK A01 T00651012  RH  058%=      5-min Rain = 0
KMD1 190922Z 31020G25KT 07/M01 A3005 RMK A01 T00651012  RH  058%=      5-min Rain = 0
KMD1 190923Z 31017KT 07/M01 A3005 RMK A01 T00651013  RH  058%=      5-min Rain = 0
KMD1 190924Z 31021G26KT 07/M01 A3005 RMK A01 T00651012  RH  058%=      5-min Rain = 0
KMD1 190925Z 32017G22KT 07/M01 A3005 RMK A01 T00651012  RH  058%=      5-min Rain = 0
KMD1 190926Z 32016G21KT 07/M01 A3006 RMK A01 T00651013  RH  058%=      5-min Rain = 0
KMD1 190927Z 32013KT 07/M01 A3006 RMK A01 T00651012  RH  058%=      5-min Rain = 0
KMD1 190928Z 31014KT 07/M01 A3006 RMK A01 T00651011  RH  058%=      5-min Rain = 0
KMD1 190929Z 31016G22KT 07/M01 A3006 RMK A01 T00651011  RH  058%=      5-min Rain = 0
KMD1 190930Z 31018G23KT 06/M01 A3006 RMK A01 T00641012  RH  058%=      5-min Rain = 0
KMD1 190931Z 31015G21KT 06/M01 A3006 RMK A01 T00641012  RH  058%=      5-min Rain = 0
KMD1 190932Z 31015KT 07/M01 A3006 RMK A01 T00651012  RH  058%=      5-min Rain = 0
KMD1 190933Z 32014KT 07/M01 A3006 RMK A01 T00651011  RH  058%=      5-min Rain = 0
KMD1 190934Z 31014KT 07/M01 A3006 RMK A01 T00651011  RH  058%=      5-min Rain = 0
KMD1 190935Z 31016G22KT 06/M01 A3006 RMK A01 T00641012  RH  058%=      5-min Rain = 0
KMD1 190936Z 31017KT 06/M01 A3006 RMK A01 T00641012  RH  058%=      5-min Rain = 0
KMD1 190937Z 32016KT 06/M01 A3006 RMK A01 T00641012  RH  058%=      5-min Rain = 0
KMD1 190938Z 31013KT 06/M01 A3006 RMK A01 T00641012  RH  058%=      5-min Rain = 0
KMD1 190939Z 30016KT 06/M01 A3006 RMK A01 T00641011  RH  058%=      5-min Rain = 0
KMD1 190940Z 32014KT 06/M01 A3006 RMK A01 T00641012  RH  058%=      5-min Rain = 0
KMD1 190941Z 32011KT 06/M01 A3006 RMK A01 T00641012  RH  058%=      5-min Rain = 0
KMD1 190942Z 32013G20KT 06/M01 A3006 RMK A01 T00641011  RH  059%=      5-min Rain = 0
KMD1 190943Z 32015G20KT 06/M01 A3006 RMK A01 T00641011  RH  059%=      5-min Rain = 0
KMD1 190944Z 32012KT 06/M01 A3007 RMK A01 T00641011  RH  059%=      5-min Rain = 0
KMD1 190945Z 33015G22KT 06/M01 A3007 RMK A01 T00641011  RH  059%=      5-min Rain = 0
KMD1 190946Z 33019KT 06/M01 A3006 RMK A01 T00631011  RH  059%=      5-min Rain = 0
KMD1 190947Z 32021G26KT 06/M01 A3006 RMK A01 T00631011  RH  059%=      5-min Rain = 0
KMD1 190948Z 32020KT 06/M01 A3006 RMK A01 T00631013  RH  059%=      5-min Rain = 0
KMD1 190949Z 32017G22KT 06/M01 A3007 RMK A01 T00631012  RH  059%=      5-min Rain = 0
KMD1 190950Z 33014G19KT 06/M01 A3007 RMK A01 T00621012  RH  059%=      5-min Rain = 0
KMD1 190951Z 33019KT 06/M01 A3007 RMK A01 T00621012  RH  059%=      5-min Rain = 0
KMD1 190952Z 33016KT 06/M01 A3007 RMK A01 T00621013  RH  059%=      5-min Rain = 0
KMD1 190953Z 32018KT 06/M01 A3007 RMK A01 T00621013  RH  059%=      5-min Rain = 0
KMD1 190954Z 33019KT 06/M01 A3007 RMK A01 T00621012  RH  059%=      5-min Rain = 0
KMD1 190955Z 32018KT 06/M01 A3007 RMK A01 T00621012  RH  059%=      5-min Rain = 0
KMD1 190956Z 32016KT 06/M01 A3007 RMK A01 T00611013  RH  059%=      5-min Rain = 0
KMD1 190957Z 32017KT 06/M01 A3007 RMK A01 T00611012  RH  059%=      5-min Rain = 0
KMD1 190958Z 32017KT 06/M01 A3007 RMK A01 T00611012  RH  059%=      5-min Rain = 0
KMD1 190959Z 33015G23KT 06/M01 A3008 RMK A01 T00611012  RH  059%=      5-min Rain = 0
KMD1 191000Z 33015G21KT 06/M01 A3007 RMK A01 T00611013  RH  059%=      5-min Rain = 0
KMD1 191001Z 33017G23KT 06/M01 A3007 RMK A01 T00611013  RH  059%=      5-min Rain = 0
KMD1 191002Z 32017KT 06/M01 A3007 RMK A01 T00611013  RH  059%=      5-min Rain = 0
KMD1 191003Z 33014KT 06/M01 A3008 RMK A01 T00611012  RH  059%=      5-min Rain = 0
KMD1 191004Z 33011KT 06/M01 A3008 RMK A01 T00601012  RH  060%=      5-min Rain = 0
KMD1 191005Z 32010KT 06/M01 A3008 RMK A01 T00601012  RH  060%=      5-min Rain = 0
KMD1 191006Z 33014G20KT 06/M01 A3008 RMK A01 T00601012  RH  060%=      5-min Rain = 0
KMD1 191007Z 33014G19KT 06/M01 A3008 RMK A01 T00601012  RH  060%=      5-min Rain = 0
KMD1 191008Z 33013KT 06/M01 A3008 RMK A01 T00601012  RH  060%=      5-min Rain = 0
KMD1 191009Z 33016G22KT 06/M01 A3008 RMK A01 T00601013  RH  060%=      5-min Rain = 0
KMD1 191010Z 32014G21KT 06/M01 A3008 RMK A01 T00601014  RH  059%=      5-min Rain = 0
KMD1 191011Z 32011KT 06/M01 A3008 RMK A01 T00601013  RH  060%=      5-min Rain = 0
KMD1 191012Z 32013KT 06/M01 A3008 RMK A01 T00601012  RH  060%=      5-min Rain = 0
KMD1 191013Z 32011KT 06/M01 A3008 RMK A01 T00601012  RH  060%=      5-min Rain = 0
KMD1 191014Z 32010KT 06/M01 A3008 RMK A01 T00601012  RH  060%=      5-min Rain = 0
KMD1 191015Z 32010KT 06/M01 A3008 RMK A01 T00601012  RH  060%=      5-min Rain = 0
KMD1 191016Z 32014KT 06/M01 A3008 RMK A01 T00601012  RH  060%=      5-min Rain = 0
KMD1 191017Z 32013G18KT 06/M01 A3008 RMK A01 T00601012  RH  060%=      5-min Rain = 0
KMD1 191018Z 32015KT 06/M01 A3008 RMK A01 T00601012  RH  060%=      5-min Rain = 0
KMD1 191019Z 33015KT 06/M01 A3009 RMK A01 T00601013  RH  060%=      5-min Rain = 0
KMD1 191020Z 32013G18KT 06/M01 A3009 RMK A01 T00591013  RH  060%=      5-min Rain = 0
KMD1 191021Z 33010KT 06/M01 A3009 RMK A01 T00591012  RH  060%=      5-min Rain = 0
KMD1 191022Z 33011KT 06/M01 A3009 RMK A01 T00601011  RH  060%=      5-min Rain = 0
KMD1 191023Z 32013KT 06/M01 A3009 RMK A01 T00601011  RH  060%=      5-min Rain = 0
KMD1 191024Z 33013KT 06/M01 A3009 RMK A01 T00591012  RH  060%=      5-min Rain = 0
KMD1 191025Z 33011G16KT 06/M01 A3009 RMK A01 T00591011  RH  060%=      5-min Rain = 0
KMD1 191026Z 32012KT 06/M01 A3009 RMK A01 T00601010  RH  061%=      5-min Rain = 0
KMD1 191027Z 32012G17KT 06/M01 A3009 RMK A01 T00591011  RH  061%=      5-min Rain = 0
KMD1 191028Z 32011KT 06/M01 A3009 RMK A01 T00591011  RH  060%=      5-min Rain = 0
KMD1 191029Z 31013KT 06/M01 A3009 RMK A01 T00601011  RH  060%=      5-min Rain = 0
KMD1 191030Z 32013KT 06/M01 A3009 RMK A01 T00591012  RH  060%=      5-min Rain = 0
KMD1 191031Z 31013KT 06/M01 A3009 RMK A01 T00601011  RH  060%=      5-min Rain = 0
KMD1 191032Z 31016G24KT 06/M01 A3009 RMK A01 T00601010  RH  061%=      5-min Rain = 0
KMD1 191033Z 31019KT 06/M01 A3009 RMK A01 T00591009  RH  061%=      5-min Rain = 0
KMD1 191034Z 31020KT 06/M01 A3009 RMK A01 T00591008  RH  062%=      5-min Rain = 0
KMD1 191035Z 31020G25KT 06/M01 A3009 RMK A01 T00591008  RH  062%=      5-min Rain = 0
KMD1 191036Z 31020G25KT 06/M01 A3009 RMK A01 T00581008  RH  062%=      5-min Rain = 0
KMD1 191037Z 31023G29KT 06/M01 A3009 RMK A01 T00581008  RH  063%=      5-min Rain = 0
KMD1 191038Z 31017KT 06/M01 A3009 RMK A01 T00571008  RH  063%=      5-min Rain = 0
KMD1 191039Z 31020KT 06/M01 A3009 RMK A01 T00571007  RH  063%=      5-min Rain = 0
KMD1 191040Z 31019KT 06/M01 A301 RMK A01 T00571008  RH  063%=      5-min Rain = 0
KMD1 191041Z 31019KT 06/M01 A301 RMK A01 T00561008  RH  063%=      5-min Rain = 0
KMD1 191042Z 32015KT 06/M01 A301 RMK A01 T00561008  RH  064%=      5-min Rain = 0
KMD1 191043Z 32015KT 06/M01 A301 RMK A01 T00561007  RH  064%=      5-min Rain = 0
KMD1 191044Z 32017KT 06/M01 A301 RMK A01 T00561007  RH  064%=      5-min Rain = 0
KMD1 191045Z 32016KT 06/M01 A301 RMK A01 T00551007  RH  064%=      5-min Rain = 0
KMD1 191046Z 31020G27KT 06/M01 A301 RMK A01 T00551007  RH  064%=      5-min Rain = 0
KMD1 191047Z 32019G25KT 06/M01 A301 RMK A01 T00551007  RH  064%=      5-min Rain = 0
KMD1 191048Z 32020G26KT 05/M01 A301 RMK A01 T00541007  RH  065%=      5-min Rain = 0
KMD1 191049Z 32018G24KT 05/M01 A301 RMK A01 T00541007  RH  065%=      5-min Rain = 0
KMD1 191050Z 31018KT 05/M01 A301 RMK A01 T00531007  RH  065%=      5-min Rain = 0
KMD1 191051Z 31020KT 05/M01 A301 RMK A01 T00531007  RH  065%=      5-min Rain = 0
KMD1 191052Z 32016KT 05/M01 A301 RMK A01 T00531007  RH  065%=      5-min Rain = 0
KMD1 191053Z 31016KT 05/M01 A301 RMK A01 T00521007  RH  066%=      5-min Rain = 0
KMD1 191054Z 31016KT 05/M01 A3011 RMK A01 T00521006  RH  066%=      5-min Rain = 0
KMD1 191055Z 32014KT 05/M01 A3011 RMK A01 T00521006  RH  066%=      5-min Rain = 0
KMD1 191056Z 32017KT 05/M01 A3011 RMK A01 T00521006  RH  066%=      5-min Rain = 0
KMD1 191057Z 32018KT 05/M01 A3011 RMK A01 T00511006  RH  066%=      5-min Rain = 0
KMD1 191058Z 32017KT 05/M01 A3011 RMK A01 T00511007  RH  066%=      5-min Rain = 0
KMD1 191059Z 31020G26KT 05/M01 A3011 RMK A01 T00511006  RH  066%=      5-min Rain = 0
KMD1 191100Z 32018KT 05/M01 A3011 RMK A01 T00511007  RH  066%=      5-min Rain = 0
KMD1 191101Z 33015G21KT 05/M01 A3011 RMK A01 T00501007  RH  066%=      5-min Rain = 0
KMD1 191102Z 32018G27KT 05/M01 A3011 RMK A01 T00501007  RH  066%=      5-min Rain = 0
KMD1 191103Z 32016G23KT 05/M01 A3011 RMK A01 T00501007  RH  066%=      5-min Rain = 0
KMD1 191104Z 31020G25KT 05/M01 A3011 RMK A01 T00501007  RH  066%=      5-min Rain = 0
KMD1 191105Z 32018KT 05/M01 A3011 RMK A01 T00501009  RH  066%=      5-min Rain = 0
KMD1 191106Z 32015KT 05/M01 A3011 RMK A01 T00501008  RH  066%=      5-min Rain = 0
KMD1 191107Z 31020G25KT 05/M01 A3011 RMK A01 T00501008  RH  066%=      5-min Rain = 0
KMD1 191108Z 32020KT 05/M01 A3011 RMK A01 T00491009  RH  066%=      5-min Rain = 0
KMD1 191109Z 32015G21KT 05/M01 A3012 RMK A01 T00491010  RH  066%=      5-min Rain = 0
KMD1 191110Z 31012KT 05/M01 A3012 RMK A01 T00491009  RH  066%=      5-min Rain = 0
KMD1 191111Z 32013KT 05/M01 A3012 RMK A01 T00491008  RH  066%=      5-min Rain = 0
KMD1 191112Z 31018KT 05/M01 A3012 RMK A01 T00491008  RH  066%=      5-min Rain = 0
KMD1 191113Z 31019G26KT 05/M01 A3011 RMK A01 T00491009  RH  066%=      5-min Rain = 0
KMD1 191114Z 32020G26KT 05/M01 A3012 RMK A01 T00491011  RH  065%=      5-min Rain = 0
KMD1 191115Z 32020G25KT 05/M01 A3012 RMK A01 T00481012  RH  065%=      5-min Rain = 0
KMD1 191116Z 32019G26KT 05/M01 A3012 RMK A01 T00491012  RH  065%=      5-min Rain = 0
KMD1 191117Z 33018G24KT 05/M01 A3012 RMK A01 T00481013  RH  065%=      5-min Rain = 0
KMD1 191118Z 32021G26KT 05/M01 A3012 RMK A01 T00481014  RH  064%=      5-min Rain = 0
KMD1 191119Z 33020G26KT 05/M01 A3012 RMK A01 T00481014  RH  064%=      5-min Rain = 0
KMD1 191120Z 32021KT 05/M02 A3012 RMK A01 T00481015  RH  064%=      5-min Rain = 0
KMD1 191121Z 32021KT 05/M02 A3012 RMK A01 T00481016  RH  063%=      5-min Rain = 0
KMD1 191122Z 32019KT 05/M02 A3012 RMK A01 T00481016  RH  063%=      5-min Rain = 0
KMD1 191123Z 33017KT 05/M02 A3012 RMK A01 T00471016  RH  064%=      5-min Rain = 0
KMD1 191124Z 32016G22KT 05/M02 A3012 RMK A01 T00471017  RH  063%=      5-min Rain = 0
KMD1 191125Z 32019KT 05/M02 A3012 RMK A01 T00471016  RH  063%=      5-min Rain = 0
KMD1 191126Z 32017G22KT 05/M02 A3012 RMK A01 T00471016  RH  064%=      5-min Rain = 0
KMD1 191127Z 32019G26KT 05/M02 A3012 RMK A01 T00471016  RH  064%=      5-min Rain = 0
KMD1 191128Z 32020G27KT 05/M02 A3013 RMK A01 T00471016  RH  064%=      5-min Rain = 0
KMD1 191129Z 32019G26KT 05/M02 A3012 RMK A01 T00471017  RH  063%=      5-min Rain = 0
KMD1 191130Z 32021G29KT 05/M02 A3012 RMK A01 T00461018  RH  063%=      5-min Rain = 0
KMD1 191131Z 33020G27KT 05/M02 A3013 RMK A01 T00461017  RH  063%=      5-min Rain = 0
KMD1 191132Z 33017G22KT 05/M02 A3012 RMK A01 T00461018  RH  063%=      5-min Rain = 0
KMD1 191133Z 33014KT 05/M02 A3013 RMK A01 T00461018  RH  063%=      5-min Rain = 0
KMD1 191134Z 33014G19KT 05/M02 A3013 RMK A01 T00461018  RH  063%=      5-min Rain = 0
KMD1 191135Z 33015KT 05/M02 A3013 RMK A01 T00461018  RH  063%=      5-min Rain = 0
KMD1 191136Z 34020G27KT 05/M02 A3013 RMK A01 T00451019  RH  063%=      5-min Rain = 0
KMD1 191137Z 33018KT 05/M02 A3013 RMK A01 T00451019  RH  063%=      5-min Rain = 0
KMD1 191138Z 32015KT 05/M02 A3013 RMK A01 T00451019  RH  063%=      5-min Rain = 0
KMD1 191139Z 32018KT 05/M02 A3013 RMK A01 T00451018  RH  064%=      5-min Rain = 0
KMD1 191140Z 33018G25KT 05/M02 A3013 RMK A01 T00451018  RH  064%=      5-min Rain = 0
KMD1 191141Z 32020KT 05/M02 A3013 RMK A01 T00451018  RH  064%=      5-min Rain = 0
KMD1 191142Z 33020G26KT 05/M02 A3013 RMK A01 T00451018  RH  064%=      5-min Rain = 0
KMD1 191143Z 31018G30KT 05/M02 A3014 RMK A01 T00451018  RH  064%=      5-min Rain = 0
KMD1 191144Z 32021G27KT 05/M02 A3013 RMK A01 T00451017  RH  064%=      5-min Rain = 0
KMD1 191145Z 32015KT 05/M02 A3014 RMK A01 T00451017  RH  064%=      5-min Rain = 0
KMD1 191146Z 32018KT 05/M02 A3014 RMK A01 T00451017  RH  064%=      5-min Rain = 0
KMD1 191147Z 32018KT 05/M02 A3014 RMK A01 T00451016  RH  065%=      5-min Rain = 0
KMD1 191148Z 32019G29KT 04/M02 A3014 RMK A01 T00441016  RH  065%=      5-min Rain = 0
KMD1 191149Z 32018G23KT 04/M02 A3014 RMK A01 T00441017  RH  065%=      5-min Rain = 0
KMD1 191150Z 32017KT 04/M02 A3014 RMK A01 T00431017  RH  065%=      5-min Rain = 0
KMD1 191151Z 32017KT 04/M02 A3014 RMK A01 T00431016  RH  065%=      5-min Rain = 0
KMD1 191152Z 32017KT 04/M02 A3014 RMK A01 T00421017  RH  065%=      5-min Rain = 0
KMD1 191153Z 32014KT 04/M02 A3014 RMK A01 T00421017  RH  066%=      5-min Rain = 0
KMD1 191154Z 33015G22KT 04/M02 A3014 RMK A01 T00411016  RH  066%=      5-min Rain = 0
KMD1 191155Z 33015G22KT 04/M02 A3014 RMK A01 T00411017  RH  066%=      5-min Rain = 0
KMD1 191156Z 32011KT 04/M02 A3014 RMK A01 T00401017  RH  066%=      5-min Rain = 0
KMD1 191157Z 32012G17KT 04/M02 A3014 RMK A01 T00391017  RH  067%=      5-min Rain = 0
KMD1 191158Z 33016KT 04/M02 A3014 RMK A01 T00391017  RH  067%=      5-min Rain = 0
KMD1 191159Z 32013KT 04/M02 A3014 RMK A01 T00391017  RH  067%=      5-min Rain = 0
KMD1 191200Z 32017G22KT 04/M02 A3014 RMK A01 T00381016  RH  068%=      5-min Rain = 0
KMD1 191201Z 32018KT 04/M02 A3014 RMK A01 T00381016  RH  068%=      5-min Rain = 0
KMD1 191202Z 32019KT 04/M02 A3014 RMK A01 T00381017  RH  067%=      5-min Rain = 0
KMD1 191203Z 32021G27KT 04/M02 A3014 RMK A01 T00381017  RH  067%=      5-min Rain = 0
KMD1 191204Z 33019KT 04/M02 A3015 RMK A01 T00381017  RH  067%=      5-min Rain = 0
KMD1 191205Z 32018G23KT 04/M02 A3015 RMK A01 T00381017  RH  067%=      5-min Rain = 0
KMD1 191206Z 32018G24KT 04/M02 A3015 RMK A01 T00381017  RH  067%=      5-min Rain = 0
KMD1 191207Z 33015KT 04/M02 A3015 RMK A01 T00381016  RH  068%=      5-min Rain = 0
KMD1 191208Z 32013KT 04/M02 A3015 RMK A01 T00371016  RH  068%=      5-min Rain = 0
KMD1 191209Z 32013G18KT 04/M02 A3015 RMK A01 T00371016  RH  068%=      5-min Rain = 0
KMD1 191210Z 33017KT 04/M02 A3015 RMK A01 T00361016  RH  069%=      5-min Rain = 0
KMD1 191211Z 32012KT 04/M02 A3015 RMK A01 T00361016  RH  069%=      5-min Rain = 0
KMD1 191212Z 32013KT 04/M02 A3015 RMK A01 T00361016  RH  069%=      5-min Rain = 0
KMD1 191213Z 32018G23KT 04/M02 A3015 RMK A01 T00361016  RH  069%=      5-min Rain = 0
KMD1 191214Z 32018KT 04/M02 A3015 RMK A01 T00361016  RH  069%=      5-min Rain = 0
KMD1 191215Z 32015KT 04/M02 A3015 RMK A01 T00361016  RH  069%=      5-min Rain = 0
KMD1 191216Z 32016KT 04/M02 A3015 RMK A01 T00361016  RH  069%=      5-min Rain = 0
KMD1 191217Z 32015G20KT 04/M02 A3015 RMK A01 T00361015  RH  069%=      5-min Rain = 0
KMD1 191218Z 32012KT 04/M02 A3015 RMK A01 T00351016  RH  069%=      5-min Rain = 0
KMD1 191219Z 31013KT 04/M02 A3015 RMK A01 T00351015  RH  070%=      5-min Rain = 0
KMD1 191220Z 31010KT 04/M02 A3015 RMK A01 T00361015  RH  070%=      5-min Rain = 0
KMD1 191221Z 32010KT 04/M02 A3016 RMK A01 T00351015  RH  070%=      5-min Rain = 0
KMD1 191222Z 32017KT 03/M02 A3016 RMK A01 T00341015  RH  070%=      5-min Rain = 0
KMD1 191223Z 33015KT 03/M02 A3015 RMK A01 T00341015  RH  070%=      5-min Rain = 0
KMD1 191224Z 32011KT 04/M02 A3015 RMK A01 T00351015  RH  070%=      5-min Rain = 0
KMD1 191225Z 31012G17KT 04/M02 A3016 RMK A01 T00351015  RH  070%=      5-min Rain = 0
KMD1 191226Z 32015KT 04/M02 A3016 RMK A01 T00351015  RH  070%=      5-min Rain = 0
KMD1 191227Z 32015KT 04/M02 A3016 RMK A01 T00351015  RH  070%=      5-min Rain = 0
KMD1 191228Z 32012G17KT 04/M01 A3016 RMK A01 T00351014  RH  070%=      5-min Rain = 0
KMD1 191229Z 32012G17KT 04/M01 A3016 RMK A01 T00351014  RH  070%=      5-min Rain = 0
KMD1 191230Z 33014G20KT 04/M01 A3016 RMK A01 T00351014  RH  070%=      5-min Rain = 0
KMD1 191231Z 31013KT 04/M01 A3016 RMK A01 T00351014  RH  071%=      5-min Rain = 0
KMD1 191232Z 32009KT 04/M01 A3016 RMK A01 T00351014  RH  071%=      5-min Rain = 0
KMD1 191233Z 33010KT 03/M01 A3016 RMK A01 T00341014  RH  071%=      5-min Rain = 0
KMD1 191234Z 32014G19KT 03/M01 A3016 RMK A01 T00341014  RH  071%=      5-min Rain = 0
KMD1 191235Z 32013KT 03/M01 A3016 RMK A01 T00341014  RH  071%=      5-min Rain = 0
KMD1 191236Z 32012KT 03/M01 A3016 RMK A01 T00341014  RH  071%=      5-min Rain = 0
KMD1 191237Z 33013G18KT 03/M01 A3016 RMK A01 T00341014  RH  071%=      5-min Rain = 0
KMD1 191238Z 33014KT 04/M01 A3016 RMK A01 T00351013  RH  071%=      5-min Rain = 0
KMD1 191239Z 32013KT 04/M01 A3016 RMK A01 T00351013  RH  070%=      5-min Rain = 0
KMD1 191240Z 32018G25KT 04/M01 A3016 RMK A01 T00351014  RH  070%=      5-min Rain = 0
KMD1 191241Z 33014KT 04/M01 A3016 RMK A01 T00361013  RH  070%=      5-min Rain = 0
KMD1 191242Z 32014G19KT 04/M01 A3016 RMK A01 T00361013  RH  070%=      5-min Rain = 0
KMD1 191243Z 32014KT 04/M01 A3016 RMK A01 T00361013  RH  070%=      5-min Rain = 0
KMD1 191244Z 33015G20KT 04/M01 A3016 RMK A01 T00351013  RH  071%=      5-min Rain = 0
KMD1 191245Z 33012KT 04/M01 A3016 RMK A01 T00351013  RH  071%=      5-min Rain = 0
KMD1 191246Z 33013G18KT 04/M01 A3017 RMK A01 T00361013  RH  070%=      5-min Rain = 0
KMD1 191247Z 33015KT 04/M01 A3016 RMK A01 T00361013  RH  070%=      5-min Rain = 0
KMD1 191248Z 33011KT 04/M01 A3016 RMK A01 T00361012  RH  071%=      5-min Rain = 0
KMD1 191249Z 33011KT 04/M01 A3017 RMK A01 T00361012  RH  071%=      5-min Rain = 0
KMD1 191250Z 32011G17KT 04/M01 A3017 RMK A01 T00361012  RH  071%=      5-min Rain = 0
KMD1 191251Z 33015KT 04/M01 A3017 RMK A01 T00361012  RH  071%=      5-min Rain = 0
KMD1 191252Z 33009KT 04/M01 A3017 RMK A01 T00361011  RH  071%=      5-min Rain = 0
KMD1 191253Z 32010KT 04/M01 A3017 RMK A01 T00361011  RH  071%=      5-min Rain = 0
KMD1 191254Z 32011KT 04/M01 A3017 RMK A01 T00361011  RH  072%=      5-min Rain = 0
KMD1 191255Z 33013KT 04/M01 A3017 RMK A01 T00361010  RH  072%=      5-min Rain = 0
KMD1 191256Z 34010KT 04/M01 A3017 RMK A01 T00361010  RH  072%=      5-min Rain = 0
KMD1 191257Z 32011KT 04/M01 A3017 RMK A01 T00361011  RH  072%=      5-min Rain = 0
KMD1 191258Z 32011G16KT 04/M01 A3017 RMK A01 T00361010  RH  072%=      5-min Rain = 0
KMD1 191259Z 32010KT 04/M01 A3017 RMK A01 T00361010  RH  072%=      5-min Rain = 0
KMD1 191300Z 32011KT 04/M01 A3017 RMK A01 T00361010  RH  072%=      5-min Rain = 0
KMD1 191301Z 32010KT 04/M01 A3017 RMK A01 T00361010  RH  072%=      5-min Rain = 0
KMD1 191302Z 33006KT 04/M01 A3017 RMK A01 T00361009  RH  072%=      5-min Rain = 0
KMD1 191303Z 32007KT 04/M01 A3017 RMK A01 T00361009  RH  072%=      5-min Rain = 0
KMD1 191304Z 32009KT 04/M01 A3017 RMK A01 T00361009  RH  072%=      5-min Rain = 0
KMD1 191305Z 32009KT 04/M01 A3017 RMK A01 T00361010  RH  072%=      5-min Rain = 0
KMD1 191306Z 32009KT 04/M01 A3017 RMK A01 T00361010  RH  072%=      5-min Rain = 0
KMD1 191307Z 31007KT 04/M01 A3017 RMK A01 T00361010  RH  072%=      5-min Rain = 0
KMD1 191308Z 31008KT 04/M01 A3017 RMK A01 T00361009  RH  072%=      5-min Rain = 0
KMD1 191309Z 32011KT 04/M01 A3017 RMK A01 T00361009  RH  073%=      5-min Rain = 0
KMD1 191310Z 32008KT 04/M01 A3017 RMK A01 T00361009  RH  072%=      5-min Rain = 0
KMD1 191311Z 32008KT 04/M01 A3017 RMK A01 T00361009  RH  072%=      5-min Rain = 0
KMD1 191312Z 32008KT 04/M01 A3017 RMK A01 T00361009  RH  072%=      5-min Rain = 0
KMD1 191313Z 32008KT 04/M01 A3017 RMK A01 T00361009  RH  072%=      5-min Rain = 0
KMD1 191314Z 32008KT 04/M01 A3018 RMK A01 T00361009  RH  072%=      5-min Rain = 0
KMD1 191315Z 31007KT 04/M01 A3018 RMK A01 T00371008  RH  072%=      5-min Rain = 0
KMD1 191316Z 31009KT 04/M01 A3018 RMK A01 T00371008  RH  073%=      5-min Rain = 0
KMD1 191317Z 31008KT 04/M01 A3018 RMK A01 T00371009  RH  072%=      5-min Rain = 0
KMD1 191318Z 31011G17KT 04/M01 A3018 RMK A01 T00371009  RH  072%=      5-min Rain = 0
KMD1 191319Z 31010KT 04/M01 A3018 RMK A01 T00371009  RH  072%=      5-min Rain = 0
KMD1 191320Z 32006KT 04/M01 A3018 RMK A01 T00371009  RH  072%=      5-min Rain = 0
KMD1 191321Z 32007KT 04/M01 A3018 RMK A01 T00381008  RH  072%=      5-min Rain = 0
KMD1 191322Z 32007KT 04/M01 A3018 RMK A01 T00371009  RH  072%=      5-min Rain = 0
KMD1 191323Z 33008KT 04/M01 A3018 RMK A01 T00371009  RH  072%=      5-min Rain = 0
KMD1 191324Z 32010KT 04/M01 A3018 RMK A01 T00381009  RH  071%=      5-min Rain = 0
KMD1 191325Z 32009G15KT 04/M01 A3018 RMK A01 T00381010  RH  071%=      5-min Rain = 0
KMD1 191326Z 32012KT 04/M01 A3018 RMK A01 T00391010  RH  070%=      5-min Rain = 0
KMD1 191327Z 33011KT 04/M01 A3018 RMK A01 T00401010  RH  070%=      5-min Rain = 0
KMD1 191328Z 33012KT 04/M01 A3018 RMK A01 T00401010  RH  070%=      5-min Rain = 0
KMD1 191329Z 32009KT 04/M01 A3018 RMK A01 T00401010  RH  070%=      5-min Rain = 0
KMD1 191330Z 33009KT 04/M01 A3018 RMK A01 T00401010  RH  070%=      5-min Rain = 0
KMD1 191331Z 33009KT 04/M01 A3019 RMK A01 T00401010  RH  070%=      5-min Rain = 0
KMD1 191332Z 31008KT 04/M01 A3019 RMK A01 T00401010  RH  070%=      5-min Rain = 0
KMD1 191333Z 31008KT 04/M01 A3019 RMK A01 T00401010  RH  070%=      5-min Rain = 0
KMD1 191334Z 32008KT 04/M01 A3019 RMK A01 T00391010  RH  070%=      5-min Rain = 0
KMD1 191335Z 32007KT 04/M01 A3019 RMK A01 T00391010  RH  071%=      5-min Rain = 0
KMD1 191336Z 31007KT 04/M01 A3019 RMK A01 T00381010  RH  071%=      5-min Rain = 0
KMD1 191337Z 31009KT 04/M01 A3019 RMK A01 T00381010  RH  071%=      5-min Rain = 0
KMD1 191338Z 32009KT 04/M01 A3019 RMK A01 T00381011  RH  071%=      5-min Rain = 0
KMD1 191339Z 32009KT 04/M01 A3019 RMK A01 T00381011  RH  070%=      5-min Rain = 0
KMD1 191340Z 32007KT 04/M01 A3019 RMK A01 T00381011  RH  070%=      5-min Rain = 0
KMD1 191341Z 31009KT 04/M01 A3019 RMK A01 T00381011  RH  070%=      5-min Rain = 0
KMD1 191342Z 32008KT 04/M01 A3019 RMK A01 T00381011  RH  070%=      5-min Rain = 0
KMD1 191343Z 31009KT 04/M01 A3019 RMK A01 T00381011  RH  070%=      5-min Rain = 0
KMD1 191344Z 31010KT 04/M01 A3019 RMK A01 T00381011  RH  071%=      5-min Rain = 0
KMD1 191345Z 32010KT 04/M01 A3019 RMK A01 T00381011  RH  070%=      5-min Rain = 0
KMD1 191346Z 31010KT 04/M01 A3019 RMK A01 T00391012  RH  070%=      5-min Rain = 0
KMD1 191347Z 33010G15KT 04/M01 A3019 RMK A01 T00391011  RH  070%=      5-min Rain = 0
KMD1 191348Z 31008KT 04/M01 A3019 RMK A01 T00391012  RH  069%=      5-min Rain = 0
KMD1 191349Z 30009KT 04/M01 A3019 RMK A01 T00391012  RH  069%=      5-min Rain = 0
KMD1 191350Z 31012KT 04/M01 A3019 RMK A01 T00391012  RH  069%=      5-min Rain = 0
KMD1 191351Z 31010KT 04/M01 A3019 RMK A01 T00401012  RH  069%=      5-min Rain = 0
KMD1 191352Z 32010KT 04/M01 A302 RMK A01 T00401011  RH  069%=      5-min Rain = 0
KMD1 191353Z 31009KT 04/M01 A302 RMK A01 T00391012  RH  069%=      5-min Rain = 0
KMD1 191354Z 31009KT 04/M01 A302 RMK A01 T00391012  RH  069%=      5-min Rain = 0
KMD1 191355Z 32011KT 04/M01 A302 RMK A01 T00391012  RH  069%=      5-min Rain = 0
KMD1 191356Z 31014KT 04/M01 A302 RMK A01 T00401013  RH  069%=      5-min Rain = 0
KMD1 191357Z 31012KT 04/M01 A302 RMK A01 T00401013  RH  068%=      5-min Rain = 0
KMD1 191358Z 31009KT 04/M01 A302 RMK A01 T00411012  RH  068%=      5-min Rain = 0
KMD1 191359Z 31009KT 04/M01 A302 RMK A01 T00411012  RH  069%=      5-min Rain = 0
KMD1 191400Z 32011G18KT 04/M01 A302 RMK A01 T00411013  RH  068%=      5-min Rain = 0
KMD1 191401Z 31013KT 04/M01 A302 RMK A01 T00411013  RH  068%=      5-min Rain = 0
KMD1 191402Z 31011KT 04/M01 A3021 RMK A01 T00411013  RH  068%=      5-min Rain = 0
KMD1 191403Z 30010KT 04/M01 A3021 RMK A01 T00411013  RH  068%=      5-min Rain = 0
KMD1 191404Z 30012KT 04/M01 A302 RMK A01 T00411013  RH  068%=      5-min Rain = 0
KMD1 191405Z 31011KT 04/M01 A302 RMK A01 T00411014  RH  067%=      5-min Rain = 0
KMD1 191406Z 30011KT 04/M01 A302 RMK A01 T00411014  RH  067%=      5-min Rain = 0
KMD1 191407Z 30013KT 04/M01 A302 RMK A01 T00411014  RH  067%=      5-min Rain = 0
KMD1 191408Z 31013KT 04/M02 A302 RMK A01 T00411015  RH  067%=      5-min Rain = 0
KMD1 191409Z 31014G20KT 04/M02 A302 RMK A01 T00421015  RH  066%=      5-min Rain = 0
KMD1 191410Z 30015KT 04/M02 A3021 RMK A01 T00421015  RH  066%=      5-min Rain = 0
KMD1 191411Z 30015KT 04/M02 A3021 RMK A01 T00421016  RH  066%=      5-min Rain = 0
KMD1 191412Z 31014G19KT 04/M02 A3021 RMK A01 T00421016  RH  066%=      5-min Rain = 0
KMD1 191413Z 31016KT 04/M02 A3021 RMK A01 T00421016  RH  066%=      5-min Rain = 0
KMD1 191414Z 31015G21KT 04/M02 A3021 RMK A01 T00421017  RH  066%=      5-min Rain = 0
KMD1 191415Z 31011KT 04/M02 A3021 RMK A01 T00421016  RH  066%=      5-min Rain = 0
KMD1 191416Z 31012KT 04/M02 A3021 RMK A01 T00421016  RH  066%=      5-min Rain = 0
KMD1 191417Z 31013KT 04/M02 A3021 RMK A01 T00421017  RH  066%=      5-min Rain = 0
KMD1 191418Z 31015KT 04/M02 A3021 RMK A01 T00421017  RH  065%=      5-min Rain = 0
KMD1 191419Z 31012KT 04/M02 A3021 RMK A01 T00421017  RH  065%=      5-min Rain = 0
KMD1 191420Z 31010KT 04/M02 A3021 RMK A01 T00421017  RH  066%=      5-min Rain = 0
KMD1 191421Z 31013KT 04/M02 A3021 RMK A01 T00421017  RH  066%=      5-min Rain = 0
KMD1 191422Z 31012KT 04/M02 A3021 RMK A01 T00421018  RH  065%=      5-min Rain = 0
KMD1 191423Z 31016KT 04/M02 A3021 RMK A01 T00421017  RH  065%=      5-min Rain = 0
KMD1 191424Z 31013KT 04/M02 A3021 RMK A01 T00421018  RH  065%=      5-min Rain = 0
KMD1 191425Z 31013G18KT 04/M02 A3021 RMK A01 T00421018  RH  065%=      5-min Rain = 0
KMD1 191426Z 30014KT 04/M02 A3021 RMK A01 T00421018  RH  065%=      5-min Rain = 0
KMD1 191427Z 31016KT 04/M02 A3022 RMK A01 T00421018  RH  065%=      5-min Rain = 0
KMD1 191428Z 31018KT 04/M02 A3022 RMK A01 T00421019  RH  065%=      5-min Rain = 0
KMD1 191429Z 31017KT 04/M02 A3022 RMK A01 T00421019  RH  064%=      5-min Rain = 0
KMD1 191430Z 31017KT 04/M02 A3022 RMK A01 T00421019  RH  065%=      5-min Rain = 0
KMD1 191431Z 31016G22KT 04/M02 A3022 RMK A01 T00421019  RH  064%=      5-min Rain = 0
KMD1 191432Z 31017KT 04/M02 A3022 RMK A01 T00421020  RH  064%=      5-min Rain = 0
KMD1 191433Z 31013KT 04/M02 A3022 RMK A01 T00421020  RH  064%=      5-min Rain = 0
KMD1 191434Z 32012KT 04/M02 A3022 RMK A01 T00421018  RH  065%=      5-min Rain = 0
KMD1 191435Z 33016G22KT 04/M02 A3022 RMK A01 T00431019  RH  064%=      5-min Rain = 0
KMD1 191436Z 32016KT 04/M02 A3022 RMK A01 T00421020  RH  064%=      5-min Rain = 0
KMD1 191437Z 31014G19KT 04/M02 A3022 RMK A01 T00431019  RH  064%=      5-min Rain = 0
KMD1 191438Z 31013KT 04/M02 A3023 RMK A01 T00431018  RH  065%=      5-min Rain = 0
KMD1 191439Z 31012KT 04/M02 A3023 RMK A01 T00431017  RH  065%=      5-min Rain = 0
KMD1 191440Z 32010G15KT 04/M02 A3023 RMK A01 T00431017  RH  065%=      5-min Rain = 0
KMD1 191441Z 31010KT 04/M02 A3023 RMK A01 T00431017  RH  065%=      5-min Rain = 0
KMD1 191442Z 31017G26KT 04/M02 A3023 RMK A01 T00441018  RH  064%=      5-min Rain = 0
KMD1 191443Z 32020G25KT 04/M02 A3023 RMK A01 T00441020  RH  063%=      5-min Rain = 0
KMD1 191444Z 32019KT 04/M02 A3023 RMK A01 T00431021  RH  063%=      5-min Rain = 0
KMD1 191445Z 32012G17KT 04/M02 A3023 RMK A01 T00421020  RH  064%=      5-min Rain = 0
KMD1 191446Z 32017G22KT 04/M02 A3023 RMK A01 T00431020  RH  064%=      5-min Rain = 0
KMD1 191447Z 32014KT 04/M02 A3023 RMK A01 T00431020  RH  064%=      5-min Rain = 0
KMD1 191448Z 32013KT 04/M02 A3023 RMK A01 T00431020  RH  064%=      5-min Rain = 0
KMD1 191449Z 30014KT 04/M02 A3023 RMK A01 T00431020  RH  064%=      5-min Rain = 0
KMD1 191450Z 32012KT 04/M02 A3023 RMK A01 T00431019  RH  064%=      5-min Rain = 0
KMD1 191451Z 31014G20KT 04/M02 A3023 RMK A01 T00441019  RH  064%=      5-min Rain = 0
KMD1 191452Z 32018G24KT 04/M02 A3024 RMK A01 T00441020  RH  063%=      5-min Rain = 0
KMD1 191453Z 32018KT 05/M02 A3023 RMK A01 T00451020  RH  063%=      5-min Rain = 0
KMD1 191454Z 31014G19KT 04/M02 A3024 RMK A01 T00441021  RH  063%=      5-min Rain = 0
KMD1 191455Z 32018G23KT 04/M02 A3024 RMK A01 T00441021  RH  063%=      5-min Rain = 0
KMD1 191456Z 32016G22KT 04/M02 A3024 RMK A01 T00441021  RH  063%=      5-min Rain = 0
KMD1 191457Z 32016G21KT 04/M02 A3024 RMK A01 T00441021  RH  063%=      5-min Rain = 0
KMD1 191458Z 32012KT 05/M02 A3024 RMK A01 T00451020  RH  063%=      5-min Rain = 0
KMD1 191459Z 31021KT 05/M02 A3024 RMK A01 T00451020  RH  063%=      5-min Rain = 0
KMD1 191500Z 32019KT 05/M02 A3024 RMK A01 T00451022  RH  062%=      5-min Rain = 0
KMD1 191501Z 31018G24KT 04/M02 A3024 RMK A01 T00441022  RH  062%=      5-min Rain = 0
KMD1 191502Z 32019KT 04/M02 A3024 RMK A01 T00441022  RH  062%=      5-min Rain = 0
KMD1 191503Z 32015KT 05/M02 A3024 RMK A01 T00451022  RH  062%=      5-min Rain = 0
KMD1 191504Z 32017G22KT 05/M02 A3024 RMK A01 T00451022  RH  062%=      5-min Rain = 0
KMD1 191505Z 31014KT 05/M02 A3024 RMK A01 T00451022  RH  062%=      5-min Rain = 0
KMD1 191506Z 31020KT 04/M02 A3024 RMK A01 T00441022  RH  062%=      5-min Rain = 0
KMD1 191507Z 32016KT 05/M02 A3025 RMK A01 T00451021  RH  062%=      5-min Rain = 0
KMD1 191508Z 32016KT 05/M02 A3025 RMK A01 T00451021  RH  062%=      5-min Rain = 0
KMD1 191509Z 33016G21KT 05/M02 A3025 RMK A01 T00451022  RH  062%=      5-min Rain = 0
KMD1 191510Z 32018KT 05/M02 A3025 RMK A01 T00451023  RH  061%=      5-min Rain = 0
KMD1 191511Z 31015G22KT 05/M02 A3025 RMK A01 T00451022  RH  062%=      5-min Rain = 0
KMD1 191512Z 31021G27KT 05/M02 A3024 RMK A01 T00461021  RH  062%=      5-min Rain = 0
KMD1 191513Z 32020G26KT 05/M02 A3025 RMK A01 T00461024  RH  061%=      5-min Rain = 0
KMD1 191514Z 33019G27KT 05/M02 A3025 RMK A01 T00451024  RH  061%=      5-min Rain = 0
KMD1 191515Z 32019G24KT 05/M02 A3025 RMK A01 T00451023  RH  061%=      5-min Rain = 0
KMD1 191516Z 32019KT 05/M03 A3025 RMK A01 T00451025  RH  060%=      5-min Rain = 0
KMD1 191517Z 32020G25KT 05/M02 A3025 RMK A01 T00451024  RH  061%=      5-min Rain = 0
KMD1 191518Z 32020G28KT 05/M03 A3025 RMK A01 T00451025  RH  060%=      5-min Rain = 0
KMD1 191519Z 33020KT 05/M03 A3025 RMK A01 T00451025  RH  061%=      5-min Rain = 0
KMD1 191520Z 33017G24KT 05/M02 A3025 RMK A01 T00451024  RH  061%=      5-min Rain = 0
KMD1 191521Z 32015KT 05/M02 A3025 RMK A01 T00451023  RH  061%=      5-min Rain = 0
KMD1 191522Z 33017KT 05/M02 A3025 RMK A01 T00461024  RH  061%=      5-min Rain = 0
KMD1 191523Z 33015KT 05/M02 A3025 RMK A01 T00461023  RH  061%=      5-min Rain = 0
KMD1 191524Z 32012KT 05/M02 A3025 RMK A01 T00471022  RH  061%=      5-min Rain = 0
KMD1 191525Z 32009G14KT 05/M02 A3026 RMK A01 T00481022  RH  060%=      5-min Rain = 0
KMD1 191526Z 32021G26KT 05/M02 A3026 RMK A01 T00491022  RH  060%=      5-min Rain = 0
KMD1 191527Z 32022KT 05/M03 A3025 RMK A01 T00481027  RH  058%=      5-min Rain = 0
KMD1 191528Z 32020KT 05/M03 A3026 RMK A01 T00471028  RH  058%=      5-min Rain = 0
KMD1 191529Z 33017KT 05/M03 A3026 RMK A01 T00461028  RH  059%=      5-min Rain = 0
KMD1 191530Z 34018KT 05/M03 A3026 RMK A01 T00461029  RH  058%=      5-min Rain = 0
KMD1 191531Z 32021G27KT 05/M03 A3026 RMK A01 T00471029  RH  058%=      5-min Rain = 0
KMD1 191532Z 33020KT 05/M03 A3026 RMK A01 T00471032  RH  057%=      5-min Rain = 0
KMD1 191533Z 33015KT 05/M03 A3026 RMK A01 T00461031  RH  057%=      5-min Rain = 0
KMD1 191534Z 32014KT 05/M03 A3026 RMK A01 T00471030  RH  057%=      5-min Rain = 0
KMD1 191535Z 32019G27KT 05/M03 A3026 RMK A01 T00491029  RH  057%=      5-min Rain = 0
KMD1 191536Z 34019KT 05/M03 A3026 RMK A01 T00491030  RH  056%=      5-min Rain = 0
KMD1 191537Z 34019G25KT 05/M03 A3026 RMK A01 T00491030  RH  057%=      5-min Rain = 0
KMD1 191538Z 34017KT 05/M03 A3026 RMK A01 T00491030  RH  057%=      5-min Rain = 0
KMD1 191539Z 34016G22KT 05/M03 A3026 RMK A01 T00491030  RH  057%=      5-min Rain = 0
KMD1 191540Z 32013KT 05/M03 A3026 RMK A01 T00491030  RH  057%=      5-min Rain = 0
KMD1 191541Z 33013KT 05/M03 A3026 RMK A01 T00501027  RH  057%=      5-min Rain = 0
KMD1 191542Z 32016KT 05/M03 A3026 RMK A01 T00511028  RH  057%=      5-min Rain = 0
KMD1 191543Z 32014KT 05/M03 A3027 RMK A01 T00511028  RH  056%=      5-min Rain = 0
KMD1 191544Z 32013KT 05/M03 A3027 RMK A01 T00521027  RH  057%=      5-min Rain = 0
KMD1 191545Z 33013KT 05/M02 A3027 RMK A01 T00531024  RH  057%=      5-min Rain = 0
KMD1 191546Z 33014G19KT 05/M03 A3027 RMK A01 T00541026  RH  056%=      5-min Rain = 0
KMD1 191547Z 32017KT 05/M03 A3027 RMK A01 T00541027  RH  056%=      5-min Rain = 0
KMD1 191548Z 33012KT 05/M02 A3027 RMK A01 T00531024  RH  057%=      5-min Rain = 0
KMD1 191549Z 33013KT 05/M03 A3027 RMK A01 T00541025  RH  057%=      5-min Rain = 0
KMD1 191550Z 32012G22KT 05/M03 A3027 RMK A01 T00541025  RH  057%=      5-min Rain = 0
KMD1 191551Z 31021G26KT 06/M03 A3027 RMK A01 T00551027  RH  056%=      5-min Rain = 0
KMD1 191552Z 33015G20KT 05/M03 A3027 RMK A01 T00541029  RH  055%=      5-min Rain = 0
KMD1 191553Z 33016G21KT 06/M03 A3027 RMK A01 T00551027  RH  056%=      5-min Rain = 0
KMD1 191554Z 34017KT 06/M03 A3027 RMK A01 T00551028  RH  055%=      5-min Rain = 0
KMD1 191555Z 32015G20KT 05/M03 A3027 RMK A01 T00541027  RH  056%=      5-min Rain = 0
KMD1 191556Z 33013KT 06/M03 A3028 RMK A01 T00551026  RH  056%=      5-min Rain = 0
KMD1 191557Z 33018KT 06/M03 A3027 RMK A01 T00571026  RH  055%=      5-min Rain = 0
KMD1 191558Z 32014KT 06/M03 A3027 RMK A01 T00561028  RH  055%=      5-min Rain = 0
KMD1 191559Z 31012KT 06/M03 A3028 RMK A01 T00561025  RH  056%=      5-min Rain = 0
KMD1 191600Z 31014KT 06/M03 A3028 RMK A01 T00571025  RH  056%=      5-min Rain = 0
KMD1 191601Z 32017G22KT 06/M03 A3027 RMK A01 T00581026  RH  055%=      5-min Rain = 0
KMD1 191602Z 32015KT 06/M03 A3028 RMK A01 T00561029  RH  054%=      5-min Rain = 0
KMD1 191603Z 33015G25KT 06/M02 A3028 RMK A01 T00561024  RH  056%=      5-min Rain = 0
KMD1 191604Z 32021G26KT 06/M03 A3028 RMK A01 T00581027  RH  054%=      5-min Rain = 0
KMD1 191605Z 32018KT 06/M03 A3028 RMK A01 T00561030  RH  054%=      5-min Rain = 0
KMD1 191606Z 32018G24KT 06/M03 A3028 RMK A01 T00561030  RH  054%=      5-min Rain = 0
KMD1 191607Z 32019KT 06/M03 A3027 RMK A01 T00551030  RH  054%=      5-min Rain = 0
KMD1 191608Z 32017G22KT 06/M03 A3028 RMK A01 T00551031  RH  054%=      5-min Rain = 0
KMD1 191609Z 32015KT 06/M03 A3028 RMK A01 T00551030  RH  054%=      5-min Rain = 0
KMD1 191610Z 32017G22KT 06/M03 A3027 RMK A01 T00551029  RH  054%=      5-min Rain = 0
KMD1 191611Z 34017KT 06/M03 A3027 RMK A01 T00561030  RH  054%=      5-min Rain = 0
KMD1 191612Z 34019KT 06/M03 A3027 RMK A01 T00571031  RH  053%=      5-min Rain = 0
KMD1 191613Z 32015G22KT 06/M03 A3028 RMK A01 T00561030  RH  054%=      5-min Rain = 0
KMD1 191614Z 32016KT 06/M03 A3028 RMK A01 T00581028  RH  054%=      5-min Rain = 0
KMD1 191615Z 32014KT 06/M03 A3028 RMK A01 T00581031  RH  053%=      5-min Rain = 0
KMD1 191616Z 32011KT 06/M03 A3028 RMK A01 T00571030  RH  053%=      5-min Rain = 0
KMD1 191617Z 32013G20KT 06/M03 A3028 RMK A01 T00591027  RH  054%=      5-min Rain = 0
KMD1 191618Z 32019G26KT 06/M03 A3028 RMK A01 T00611029  RH  053%=      5-min Rain = 0
KMD1 191619Z 32019G25KT 06/M03 A3028 RMK A01 T00601032  RH  052%=      5-min Rain = 0
KMD1 191620Z 32018G26KT 06/M03 A3027 RMK A01 T00591032  RH  052%=      5-min Rain = 0
KMD1 191621Z 32016KT 06/M03 A3028 RMK A01 T00591032  RH  052%=      5-min Rain = 0
KMD1 191622Z 32017G23KT 06/M03 A3028 RMK A01 T00591034  RH  052%=      5-min Rain = 0
KMD1 191623Z 33016G22KT 06/M04 A3028 RMK A01 T00581035  RH  051%=      5-min Rain = 0
KMD1 191624Z 33019KT 06/M03 A3028 RMK A01 T00571034  RH  052%=      5-min Rain = 0
KMD1 191625Z 32017G22KT 06/M03 A3028 RMK A01 T00581034  RH  052%=      5-min Rain = 0
KMD1 191626Z 32020G26KT 06/M03 A3028 RMK A01 T00581033  RH  052%=      5-min Rain = 0
KMD1 191627Z 31020G26KT 06/M03 A3028 RMK A01 T00591034  RH  051%=      5-min Rain = 0
KMD1 191628Z 33022G28KT 06/M04 A3028 RMK A01 T00591035  RH  051%=      5-min Rain = 0
KMD1 191629Z 33022KT 06/M04 A3028 RMK A01 T00581038  RH  050%=      5-min Rain = 0
KMD1 191630Z 33018G24KT 06/M04 A3028 RMK A01 T00571037  RH  051%=      5-min Rain = 0
KMD1 191631Z 32020KT 06/M04 A3028 RMK A01 T00581036  RH  051%=      5-min Rain = 0
KMD1 191632Z 33018KT 06/M04 A3029 RMK A01 T00591036  RH  050%=      5-min Rain = 0
KMD1 191633Z 33017KT 06/M04 A3029 RMK A01 T00591036  RH  050%=      5-min Rain = 0
KMD1 191634Z 32016G21KT 06/M04 A3029 RMK A01 T00581038  RH  050%=      5-min Rain = 0
KMD1 191635Z 34013G18KT 06/M03 A3029 RMK A01 T00591033  RH  051%=      5-min Rain = 0
KMD1 191636Z 33015KT 06/M03 A3029 RMK A01 T00611032  RH  051%=      5-min Rain = 0
KMD1 191637Z 32018G23KT 06/M03 A3029 RMK A01 T00621033  RH  050%=      5-min Rain = 0
KMD1 191638Z 32021G26KT 06/M03 A3029 RMK A01 T00621034  RH  050%=      5-min Rain = 0
KMD1 191639Z 33020G25KT 06/M04 A3029 RMK A01 T00621036  RH  050%=      5-min Rain = 0
KMD1 191640Z 33017G24KT 06/M03 A3029 RMK A01 T00611034  RH  050%=      5-min Rain = 0
KMD1 191641Z 33016G21KT 06/M03 A3029 RMK A01 T00641030  RH  051%=      5-min Rain = 0
KMD1 191642Z 33018KT 07/M03 A3029 RMK A01 T00651033  RH  050%=      5-min Rain = 0
KMD1 191643Z 33017G22KT 06/M03 A3029 RMK A01 T00641033  RH  050%=      5-min Rain = 0
KMD1 191644Z 33018KT 07/M03 A3029 RMK A01 T00651033  RH  050%=      5-min Rain = 0
KMD1 191645Z 32021G26KT 07/M04 A3029 RMK A01 T00651036  RH  049%=      5-min Rain = 0
KMD1 191646Z 33018KT 06/M04 A3029 RMK A01 T00631036  RH  049%=      5-min Rain = 0
KMD1 191647Z 33016G23KT 07/M03 A3029 RMK A01 T00651031  RH  050%=      5-min Rain = 0
KMD1 191648Z 33018G26KT 07/M03 A3029 RMK A01 T00661033  RH  049%=      5-min Rain = 0
KMD1 191649Z 32018KT 07/M04 A3029 RMK A01 T00651037  RH  048%=      5-min Rain = 0
KMD1 191650Z 33017KT 07/M04 A3029 RMK A01 T00651036  RH  048%=      5-min Rain = 0
KMD1 191651Z 33016KT 06/M04 A303 RMK A01 T00641036  RH  049%=      5-min Rain = 0
KMD1 191652Z 34016KT 07/M04 A303 RMK A01 T00651036  RH  049%=      5-min Rain = 0
KMD1 191653Z 34017KT 07/M04 A303 RMK A01 T00651037  RH  048%=      5-min Rain = 0
KMD1 191654Z 33015KT 07/M03 A303 RMK A01 T00651034  RH  049%=      5-min Rain = 0
KMD1 191655Z 31018KT 07/M03 A303 RMK A01 T00671033  RH  049%=      5-min Rain = 0
KMD1 191656Z 33017KT 07/M03 A303 RMK A01 T00681034  RH  048%=      5-min Rain = 0
KMD1 191657Z 32019G26KT 07/M04 A303 RMK A01 T00661039  RH  047%=      5-min Rain = 0
KMD1 191658Z 33016KT 07/M04 A303 RMK A01 T00651039  RH  047%=      5-min Rain = 0
KMD1 191659Z 33012KT 07/M04 A303 RMK A01 T00651039  RH  048%=      5-min Rain = 0
KMD1 191700Z 32015G21KT 07/M03 A303 RMK A01 T00671034  RH  049%=      5-min Rain = 0
KMD1 191701Z 32021G28KT 07/M04 A303 RMK A01 T00681038  RH  047%=      5-min Rain = 0
KMD1 191702Z 34017KT 07/M04 A303 RMK A01 T00671040  RH  046%=      5-min Rain = 0
KMD1 191703Z 34020G26KT 07/M04 A303 RMK A01 T00671039  RH  047%=      5-min Rain = 0
KMD1 191704Z 34019KT 07/M04 A303 RMK A01 T00661040  RH  047%=      5-min Rain = 0
KMD1 191705Z 35020KT 07/M04 A303 RMK A01 T00661039  RH  047%=      5-min Rain = 0
KMD1 191706Z 33014KT 07/M04 A303 RMK A01 T00661037  RH  048%=      5-min Rain = 0
KMD1 191707Z 32012G17KT 07/M04 A303 RMK A01 T00691035  RH  048%=      5-min Rain = 0
KMD1 191708Z 33014KT 07/M03 A303 RMK A01 T00701034  RH  047%=      5-min Rain = 0
KMD1 191709Z 33018KT 07/M04 A303 RMK A01 T00711035  RH  047%=      5-min Rain = 0
KMD1 191710Z 34016G22KT 07/M04 A303 RMK A01 T00711035  RH  047%=      5-min Rain = 0
KMD1 191711Z 33018G23KT 07/M04 A303 RMK A01 T00711037  RH  046%=      5-min Rain = 0
KMD1 191712Z 33018KT 07/M04 A303 RMK A01 T00701038  RH  046%=      5-min Rain = 0
KMD1 191713Z 33018KT 07/M04 A303 RMK A01 T00691036  RH  047%=      5-min Rain = 0
KMD1 191714Z 33022G27KT 07/M04 A303 RMK A01 T00701038  RH  046%=      5-min Rain = 0
KMD1 191715Z 33016G23KT 07/M04 A303 RMK A01 T00691039  RH  046%=      5-min Rain = 0
KMD1 191716Z 32015KT 07/M04 A303 RMK A01 T00701038  RH  046%=      5-min Rain = 0
KMD1 191717Z 33018G23KT 07/M04 A303 RMK A01 T00711037  RH  046%=      5-min Rain = 0
KMD1 191718Z 33016G23KT 07/M04 A303 RMK A01 T00711038  RH  046%=      5-min Rain = 0
KMD1 191719Z 33020G25KT 07/M04 A303 RMK A01 T00731036  RH  046%=      5-min Rain = 0
KMD1 191720Z 34016G21KT 07/M04 A303 RMK A01 T00721038  RH  045%=      5-min Rain = 0
KMD1 191721Z 34017G23KT 07/M04 A303 RMK A01 T00731038  RH  045%=      5-min Rain = 0
KMD1 191722Z 33018G24KT 07/M04 A303 RMK A01 T00711039  RH  045%=      5-min Rain = 0
KMD1 191723Z 34014G20KT 07/M04 A303 RMK A01 T00701040  RH  046%=      5-min Rain = 0
KMD1 191724Z 33014KT 07/M04 A303 RMK A01 T00711035  RH  047%=      5-min Rain = 0
KMD1 191725Z 33018G24KT 07/M03 A303 RMK A01 T00741033  RH  047%=      5-min Rain = 0
KMD1 191726Z 33018G24KT 07/M04 A303 RMK A01 T00741036  RH  046%=      5-min Rain = 0
KMD1 191727Z 33019G25KT 07/M04 A303 RMK A01 T00741035  RH  046%=      5-min Rain = 0
KMD1 191728Z 32018KT 07/M04 A3029 RMK A01 T00741036  RH  046%=      5-min Rain = 0
KMD1 191729Z 32020G27KT 08/M04 A3029 RMK A01 T00751037  RH  045%=      5-min Rain = 0
KMD1 191730Z 33017KT 07/M04 A3029 RMK A01 T00741039  RH  045%=      5-min Rain = 0
KMD1 191731Z 34016KT 07/M04 A3029 RMK A01 T00741036  RH  045%=      5-min Rain = 0
KMD1 191732Z 34021G27KT 08/M04 A303 RMK A01 T00751037  RH  045%=      5-min Rain = 0
KMD1 191733Z 33015G21KT 08/M04 A3029 RMK A01 T00751039  RH  044%=      5-min Rain = 0
KMD1 191734Z 34018KT 08/M04 A3029 RMK A01 T00751038  RH  045%=      5-min Rain = 0
KMD1 191735Z 34018KT 08/M04 A3029 RMK A01 T00751039  RH  044%=      5-min Rain = 0
KMD1 191736Z 34020KT 07/M04 A3029 RMK A01 T00741038  RH  045%=      5-min Rain = 0
KMD1 191737Z 34015KT 07/M04 A3029 RMK A01 T00741037  RH  045%=      5-min Rain = 0
KMD1 191738Z 34017G23KT 08/M03 A3029 RMK A01 T00761034  RH  045%=      5-min Rain = 0
KMD1 191739Z 33019KT 08/M04 A3029 RMK A01 T00751040  RH  044%=      5-min Rain = 0
KMD1 191740Z 34015KT 08/M03 A3029 RMK A01 T00751034  RH  046%=      5-min Rain = 0
KMD1 191741Z 34017G22KT 08/M03 A3029 RMK A01 T00781033  RH  045%=      5-min Rain = 0
KMD1 191742Z 34016KT 08/M04 A3029 RMK A01 T00781035  RH  045%=      5-min Rain = 0
KMD1 191743Z 31016G21KT 08/M04 A3029 RMK A01 T00781035  RH  045%=      5-min Rain = 0
KMD1 191744Z 33015G21KT 08/M03 A3029 RMK A01 T00791034  RH  045%=      5-min Rain = 0
KMD1 191745Z 32016G22KT 08/M03 A3029 RMK A01 T00811032  RH  045%=      5-min Rain = 0
KMD1 191746Z 33017KT 08/M04 A3029 RMK A01 T00801037  RH  043%=      5-min Rain = 0
KMD1 191747Z 33021KT 08/M04 A3029 RMK A01 T00791037  RH  044%=      5-min Rain = 0
KMD1 191748Z 33019G26KT 08/M04 A3029 RMK A01 T00781038  RH  044%=      5-min Rain = 0
KMD1 191749Z 33015KT 08/M03 A3029 RMK A01 T00781034  RH  045%=      5-min Rain = 0
KMD1 191750Z 34018KT 08/M03 A3029 RMK A01 T00811033  RH  045%=      5-min Rain = 0
KMD1 191751Z 33012KT 08/M03 A3029 RMK A01 T00811031  RH  045%=      5-min Rain = 0
KMD1 191752Z 32013KT 08/M03 A3029 RMK A01 T00831027  RH  046%=      5-min Rain = 0
KMD1 191753Z 31018KT 08/M03 A3029 RMK A01 T00841028  RH  045%=      5-min Rain = 0
KMD1 191754Z 33016G21KT 08/M03 A3029 RMK A01 T00821027  RH  046%=      5-min Rain = 0
KMD1 191755Z 32017G23KT 08/M03 A3029 RMK A01 T00821028  RH  046%=      5-min Rain = 0
KMD1 191756Z 32019G24KT 08/M03 A3028 RMK A01 T00821028  RH  046%=      5-min Rain = 0
KMD1 191757Z 32018KT 08/M03 A3029 RMK A01 T00821026  RH  047%=      5-min Rain = 0
KMD1 191758Z 31022KT 08/M03 A3028 RMK A01 T00821027  RH  046%=      5-min Rain = 0
KMD1 191759Z 31020G25KT 08/M03 A3028 RMK A01 T00821027  RH  046%=      5-min Rain = 0
KMD1 191800Z 32022G27KT 08/M03 A3028 RMK A01 T00811030  RH  046%=      5-min Rain = 0
KMD1 191801Z 33017KT 08/M03 A3028 RMK A01 T00791030  RH  046%=      5-min Rain = 0
KMD1 191802Z 33015KT 08/M03 A3028 RMK A01 T00801028  RH  046%=      5-min Rain = 0
KMD1 191803Z 33019G25KT 08/M03 A3028 RMK A01 T00821026  RH  046%=      5-min Rain = 0
KMD1 191804Z 32017KT 08/M03 A3028 RMK A01 T00811031  RH  045%=      5-min Rain = 0
KMD1 191805Z 31019G24KT 08/M03 A3028 RMK A01 T00791031  RH  046%=      5-min Rain = 0
KMD1 191806Z 32022G28KT 08/M03 A3028 RMK A01 T00801031  RH  045%=      5-min Rain = 0
KMD1 191807Z 33019G25KT 08/M03 A3028 RMK A01 T00801032  RH  045%=      5-min Rain = 0
KMD1 191808Z 33018G23KT 08/M03 A3028 RMK A01 T00811033  RH  045%=      5-min Rain = 0
KMD1 191809Z 34016G21KT 08/M03 A3028 RMK A01 T00801030  RH  046%=      5-min Rain = 0
KMD1 191810Z 34015G20KT 08/M03 A3028 RMK A01 T00821028  RH  046%=      5-min Rain = 0
KMD1 191811Z 32018KT 08/M03 A3028 RMK A01 T00831028  RH  045%=      5-min Rain = 0
KMD1 191812Z 31018G23KT 08/M03 A3027 RMK A01 T00841027  RH  045%=      5-min Rain = 0
KMD1 191813Z 32015KT 08/M03 A3027 RMK A01 T00841029  RH  045%=      5-min Rain = 0
KMD1 191814Z 32017KT 08/M03 A3027 RMK A01 T00841028  RH  045%=      5-min Rain = 0
KMD1 191815Z 33019G26KT 08/M03 A3027 RMK A01 T00841027  RH  045%=      5-min Rain = 0
KMD1 191816Z 34017G23KT 08/M03 A3028 RMK A01 T00841029  RH  045%=      5-min Rain = 0
KMD1 191817Z 33018G24KT 09/M03 A3028 RMK A01 T00851025  RH  046%=      5-min Rain = 0
KMD1 191818Z 34019G25KT 09/M03 A3028 RMK A01 T00861026  RH  045%=      5-min Rain = 0
KMD1 191819Z 32018KT 09/M03 A3028 RMK A01 T00851029  RH  044%=      5-min Rain = 0
KMD1 191820Z 31018KT 08/M03 A3028 RMK A01 T00841026  RH  046%=      5-min Rain = 0
KMD1 191821Z 32020G25KT 09/M02 A3028 RMK A01 T00861024  RH  046%=      5-min Rain = 0
KMD1 191822Z 32018G24KT 09/M03 A3028 RMK A01 T00871025  RH  045%=      5-min Rain = 0
KMD1 191823Z 32018G23KT 09/M03 A3028 RMK A01 T00861027  RH  045%=      5-min Rain = 0
KMD1 191824Z 32021KT 09/M03 A3028 RMK A01 T00861026  RH  045%=      5-min Rain = 0
KMD1 191825Z 33021G27KT 09/M03 A3027 RMK A01 T00851030  RH  044%=      5-min Rain = 0
KMD1 191826Z 33022KT 08/M03 A3027 RMK A01 T00831032  RH  044%=      5-min Rain = 0
KMD1 191827Z 33018KT 08/M03 A3027 RMK A01 T00821031  RH  045%=      5-min Rain = 0
KMD1 191828Z 33017KT 08/M03 A3027 RMK A01 T00831029  RH  045%=      5-min Rain = 0
KMD1 191829Z 34014KT 09/M03 A3027 RMK A01 T00851029  RH  044%=      5-min Rain = 0
KMD1 191830Z 32016KT 09/M03 A3027 RMK A01 T00871025  RH  045%=      5-min Rain = 0
KMD1 191831Z 33017KT 09/M03 A3027 RMK A01 T00891026  RH  044%=      5-min Rain = 0
KMD1 191832Z 33015KT 09/M03 A3027 RMK A01 T00881028  RH  044%=      5-min Rain = 0
KMD1 191833Z 33014KT 09/M02 A3027 RMK A01 T00901023  RH  045%=      5-min Rain = 0
KMD1 191834Z 33014KT 09/M02 A3027 RMK A01 T00921021  RH  045%=      5-min Rain = 0
KMD1 191835Z 31013KT 09/M02 A3027 RMK A01 T00941022  RH  044%=      5-min Rain = 0
KMD1 191836Z 32019KT 10/M02 A3027 RMK A01 T00951021  RH  044%=      5-min Rain = 0
KMD1 191837Z 31023KT 09/M03 A3027 RMK A01 T00931027  RH  043%=      5-min Rain = 0
KMD1 191838Z 31020G25KT 09/M03 A3027 RMK A01 T00901028  RH  043%=      5-min Rain = 0
KMD1 191839Z 32018G23KT 09/M03 A3027 RMK A01 T00891028  RH  044%=      5-min Rain = 0
KMD1 191840Z 32020KT 09/M03 A3027 RMK A01 T00891028  RH  044%=      5-min Rain = 0
KMD1 191841Z 31017KT 09/M03 A3027 RMK A01 T00881028  RH  044%=      5-min Rain = 0
KMD1 191842Z 31017KT 09/M03 A3027 RMK A01 T00891026  RH  044%=      5-min Rain = 0
KMD1 191843Z 31017KT 09/M03 A3027 RMK A01 T00901026  RH  044%=      5-min Rain = 0
KMD1 191844Z 33019KT 09/M03 A3027 RMK A01 T00911025  RH  044%=      5-min Rain = 0
KMD1 191845Z 32022G27KT 09/M03 A3027 RMK A01 T00911028  RH  043%=      5-min Rain = 0
KMD1 191846Z 32021G28KT 09/M03 A3027 RMK A01 T00901029  RH  043%=      5-min Rain = 0
KMD1 191847Z 32017G24KT 09/M03 A3027 RMK A01 T00901028  RH  044%=      5-min Rain = 0
KMD1 191848Z 32017G25KT 09/M03 A3027 RMK A01 T00911028  RH  043%=      5-min Rain = 0
KMD1 191849Z 32018G23KT 09/M03 A3027 RMK A01 T00931026  RH  043%=      5-min Rain = 0
KMD1 191850Z 32018G23KT 09/M03 A3027 RMK A01 T00931030  RH  042%=      5-min Rain = 0
KMD1 191851Z 32023G30KT 09/M03 A3026 RMK A01 T00911032  RH  042%=      5-min Rain = 0
KMD1 191852Z 33022KT 09/M03 A3026 RMK A01 T00901032  RH  042%=      5-min Rain = 0
KMD1 191853Z 32020KT 09/M03 A3026 RMK A01 T00901031  RH  042%=      5-min Rain = 0
KMD1 191854Z 32022KT 09/M03 A3026 RMK A01 T00911030  RH  043%=      5-min Rain = 0
KMD1 191855Z 31020KT 09/M03 A3026 RMK A01 T00911029  RH  043%=      5-min Rain = 0
KMD1 191856Z 32019KT 09/M03 A3026 RMK A01 T00921029  RH  043%=      5-min Rain = 0
KMD1 191857Z 33019G26KT 09/M03 A3026 RMK A01 T00941027  RH  043%=      5-min Rain = 0
KMD1 191858Z 33019KT 09/M03 A3026 RMK A01 T00931030  RH  042%=      5-min Rain = 0
KMD1 191859Z 33021G26KT 09/M03 A3026 RMK A01 T00921029  RH  043%=      5-min Rain = 0
KMD1 191900Z 33019KT 09/M03 A3026 RMK A01 T00911031  RH  042%=      5-min Rain = 0
KMD1 191901Z 33016KT 09/M03 A3026 RMK A01 T00911029  RH  043%=      5-min Rain = 0
KMD1 191902Z 33012G17KT 09/M02 A3026 RMK A01 T00931024  RH  044%=      5-min Rain = 0
KMD1 191903Z 33012KT 10/M02 A3026 RMK A01 T00981017  RH  044%=      5-min Rain = 0
KMD1 191904Z 32011KT 10/M02 A3026 RMK A01 T01001023  RH  042%=      5-min Rain = 0
KMD1 191905Z 33015KT 10/M02 A3026 RMK A01 T01011019  RH  043%=      5-min Rain = 0
KMD1 191906Z 32016G22KT 10/M02 A3026 RMK A01 T01031018  RH  043%=      5-min Rain = 0
KMD1 191907Z 31020G26KT 10/M02 A3026 RMK A01 T01031021  RH  042%=      5-min Rain = 0
KMD1 191908Z 32017KT 10/M03 A3026 RMK A01 T01011025  RH  041%=      5-min Rain = 0
KMD1 191909Z 31016KT 10/M02 A3026 RMK A01 T01001022  RH  042%=      5-min Rain = 0
KMD1 191910Z 31017KT 10/M02 A3026 RMK A01 T01011023  RH  042%=      5-min Rain = 0
KMD1 191911Z 32017KT 10/M03 A3026 RMK A01 T01001025  RH  041%=      5-min Rain = 0
KMD1 191912Z 32020G25KT 10/M03 A3026 RMK A01 T00981028  RH  041%=      5-min Rain = 0
KMD1 191913Z 32022G27KT 10/M03 A3026 RMK A01 T00961026  RH  042%=      5-min Rain = 0
KMD1 191914Z 33021KT 10/M03 A3026 RMK A01 T00971026  RH  042%=      5-min Rain = 0
KMD1 191915Z 32022KT 10/M03 A3026 RMK A01 T00961027  RH  042%=      5-min Rain = 0
KMD1 191916Z 32020KT 10/M03 A3026 RMK A01 T00961027  RH  042%=      5-min Rain = 0
KMD1 191917Z 32019G24KT 10/M03 A3026 RMK A01 T00961027  RH  042%=      5-min Rain = 0
KMD1 191918Z 33015KT 10/M02 A3026 RMK A01 T00971023  RH  043%=      5-min Rain = 0
KMD1 191919Z 31015KT 10/M02 A3026 RMK A01 T00991022  RH  043%=      5-min Rain = 0
KMD1 191920Z 30017G26KT 10/M02 A3025 RMK A01 T01011019  RH  043%=      5-min Rain = 0
KMD1 191921Z 32018KT 10/M02 A3025 RMK A01 T01021023  RH  041%=      5-min Rain = 0
KMD1 191922Z 33017G24KT 10/M02 A3025 RMK A01 T01011022  RH  042%=      5-min Rain = 0
KMD1 191923Z 33018G23KT 10/M02 A3025 RMK A01 T01011023  RH  042%=      5-min Rain = 0
KMD1 191924Z 33019KT 10/M02 A3025 RMK A01 T01011024  RH  041%=      5-min Rain = 0
KMD1 191925Z 32017KT 10/M02 A3025 RMK A01 T01011024  RH  042%=      5-min Rain = 0
KMD1 191926Z 32018KT 10/M02 A3025 RMK A01 T01011022  RH  042%=      5-min Rain = 0
KMD1 191927Z 32016G22KT 10/M02 A3025 RMK A01 T01031023  RH  041%=      5-min Rain = 0
KMD1 191928Z 32013G18KT 10/M02 A3025 RMK A01 T01031023  RH  041%=      5-min Rain = 0
KMD1 191929Z 32011KT 10/M02 A3025 RMK A01 T01041018  RH  043%=      5-min Rain = 0
KMD1 191930Z 32015G21KT 11/M02 A3025 RMK A01 T01071018  RH  042%=      5-min Rain = 0
KMD1 191931Z 32012G18KT 11/M02 A3025 RMK A01 T01071020  RH  041%=      5-min Rain = 0
KMD1 191932Z 33014KT 11/M02 A3025 RMK A01 T01081019  RH  041%=      5-min Rain = 0
KMD1 191933Z 32017KT 11/M02 A3025 RMK A01 T01081020  RH  041%=      5-min Rain = 0
KMD1 191934Z 31023KT 11/M03 A3025 RMK A01 T01071027  RH  039%=      5-min Rain = 0
KMD1 191935Z 32015KT 10/M03 A3025 RMK A01 T01041026  RH  040%=      5-min Rain = 0
KMD1 191936Z 34015G20KT 11/M02 A3025 RMK A01 T01061019  RH  042%=      5-min Rain = 0
KMD1 191937Z 34019KT 11/M02 A3025 RMK A01 T01071023  RH  040%=      5-min Rain = 0
KMD1 191938Z 34018KT 10/M03 A3025 RMK A01 T01041026  RH  040%=      5-min Rain = 0
KMD1 191939Z 35019G25KT 10/M02 A3025 RMK A01 T01031024  RH  041%=      5-min Rain = 0
KMD1 191940Z 34014KT 10/M02 A3025 RMK A01 T01031023  RH  041%=      5-min Rain = 0
KMD1 191941Z 33014KT 11/M02 A3025 RMK A01 T01061018  RH  042%=      5-min Rain = 0
KMD1 191942Z 31017G23KT 11/M02 A3024 RMK A01 T01081021  RH  041%=      5-min Rain = 0
KMD1 191943Z 31020KT 11/M02 A3024 RMK A01 T01081024  RH  040%=      5-min Rain = 0
KMD1 191944Z 33015KT 11/M02 A3024 RMK A01 T01071024  RH  040%=      5-min Rain = 0
KMD1 191945Z 33019KT 11/M02 A3024 RMK A01 T01081024  RH  040%=      5-min Rain = 0
KMD1 191946Z 33019KT 11/M03 A3024 RMK A01 T01071026  RH  039%=      5-min Rain = 0
KMD1 191947Z 31018G25KT 11/M03 A3024 RMK A01 T01061027  RH  039%=      5-min Rain = 0
KMD1 191948Z 32021G29KT 11/M03 A3024 RMK A01 T01061026  RH  040%=      5-min Rain = 0
KMD1 191949Z 33018KT 11/M03 A3024 RMK A01 T01061027  RH  039%=      5-min Rain = 0
KMD1 191950Z 32019KT 11/M03 A3024 RMK A01 T01071027  RH  039%=      5-min Rain = 0
KMD1 191951Z 33014G21KT 11/M03 A3024 RMK A01 T01061027  RH  039%=      5-min Rain = 0
KMD1 191952Z 32014G19KT 11/M02 A3024 RMK A01 T01081020  RH  041%=      5-min Rain = 0
KMD1 191953Z 31017G23KT 11/M03 A3024 RMK A01 T01101025  RH  039%=      5-min Rain = 0
KMD1 191954Z 31015KT 11/M02 A3024 RMK A01 T01101024  RH  039%=      5-min Rain = 0
KMD1 191955Z 33015G21KT 11/M02 A3024 RMK A01 T01111020  RH  040%=      5-min Rain = 0
KMD1 191956Z 32016G24KT 11/M02 A3024 RMK A01 T01131019  RH  040%=      5-min Rain = 0
KMD1 191957Z 32017KT 11/M02 A3024 RMK A01 T01131023  RH  039%=      5-min Rain = 0
KMD1 191958Z 32020G25KT 11/M03 A3024 RMK A01 T01121026  RH  038%=      5-min Rain = 0
KMD1 191959Z 31017G24KT 11/M03 A3024 RMK A01 T01101025  RH  039%=      5-min Rain = 0
KMD1 192000Z 31016KT 11/M02 A3024 RMK A01 T01111021  RH  040%=      5-min Rain = 0
KMD1 192001Z 31018G23KT 11/M02 A3023 RMK A01 T01121024  RH  039%=      5-min Rain = 0
KMD1 192002Z 32020KT 11/M02 A3023 RMK A01 T01101024  RH  039%=      5-min Rain = 0
KMD1 192003Z 33019KT 11/M03 A3023 RMK A01 T01101025  RH  039%=      5-min Rain = 0
KMD1 192004Z 31019G26KT 11/M03 A3023 RMK A01 T01081027  RH  039%=      5-min Rain = 0
KMD1 192005Z 32022G27KT 11/M03 A3023 RMK A01 T01081026  RH  039%=      5-min Rain = 0
KMD1 192006Z 32022KT 11/M03 A3023 RMK A01 T01091028  RH  038%=      5-min Rain = 0
KMD1 192007Z 32020G25KT 11/M03 A3024 RMK A01 T01081025  RH  039%=      5-min Rain = 0
KMD1 192008Z 32020G25KT 11/M03 A3023 RMK A01 T01091028  RH  038%=      5-min Rain = 0
KMD1 192009Z 33021KT 11/M03 A3023 RMK A01 T01091029  RH  038%=      5-min Rain = 0
KMD1 192010Z 34019G25KT 11/M03 A3023 RMK A01 T01091029  RH  038%=      5-min Rain = 0
KMD1 192011Z 33016KT 11/M03 A3023 RMK A01 T01091030  RH  038%=      5-min Rain = 0
KMD1 192012Z 32018G24KT 11/M03 A3023 RMK A01 T01081031  RH  038%=      5-min Rain = 0
KMD1 192013Z 33021KT 11/M03 A3023 RMK A01 T01081029  RH  038%=      5-min Rain = 0
KMD1 192014Z 33016G22KT 11/M03 A3024 RMK A01 T01091031  RH  037%=      5-min Rain = 0
KMD1 192015Z 33017KT 11/M03 A3024 RMK A01 T01091029  RH  038%=      5-min Rain = 0
KMD1 192016Z 33022G30KT 11/M03 A3023 RMK A01 T01101031  RH  037%=      5-min Rain = 0
KMD1 192017Z 33021KT 11/M03 A3024 RMK A01 T01101031  RH  037%=      5-min Rain = 0
KMD1 192018Z 35022G28KT 11/M03 A3024 RMK A01 T01101031  RH  037%=      5-min Rain = 0
KMD1 192019Z 34018KT 11/M03 A3024 RMK A01 T01091029  RH  038%=      5-min Rain = 0
KMD1 192020Z 33019KT 11/M03 A3023 RMK A01 T01101030  RH  038%=      5-min Rain = 0
KMD1 192021Z 32013G19KT 11/M03 A3024 RMK A01 T01111026  RH  038%=      5-min Rain = 0
KMD1 192022Z 34014G19KT 11/M02 A3024 RMK A01 T01131023  RH  039%=      5-min Rain = 0
KMD1 192023Z 33015KT 11/M03 A3023 RMK A01 T01131027  RH  037%=      5-min Rain = 0
KMD1 192024Z 32015KT 11/M03 A3023 RMK A01 T01131025  RH  038%=      5-min Rain = 0
KMD1 192025Z 32013KT 11/M03 A3023 RMK A01 T01121027  RH  038%=      5-min Rain = 0
KMD1 192026Z 33012KT 11/M03 A3023 RMK A01 T01121025  RH  038%=      5-min Rain = 0
KMD1 192027Z 33017G22KT 11/M02 A3023 RMK A01 T01131023  RH  038%=      5-min Rain = 0
KMD1 192028Z 34014KT 11/M02 A3023 RMK A01 T01141022  RH  038%=      5-min Rain = 0
KMD1 192029Z 34013KT 12/M02 A3024 RMK A01 T01161018  RH  039%=      5-min Rain = 0
KMD1 192030Z 34016KT 12/M02 A3024 RMK A01 T01181020  RH  038%=      5-min Rain = 0
KMD1 192031Z 34015KT 12/M02 A3023 RMK A01 T01161024  RH  037%=      5-min Rain = 0
KMD1 192032Z 34013KT 11/M03 A3024 RMK A01 T01141025  RH  038%=      5-min Rain = 0
KMD1 192033Z 34012KT 11/M02 A3023 RMK A01 T01141023  RH  038%=      5-min Rain = 0
KMD1 192034Z 33012G19KT 11/M02 A3023 RMK A01 T01141023  RH  038%=      5-min Rain = 0
KMD1 192035Z 33015G20KT 12/M02 A3023 RMK A01 T01161020  RH  039%=      5-min Rain = 0
KMD1 192036Z 33017KT 12/M03 A3023 RMK A01 T01171027  RH  036%=      5-min Rain = 0
KMD1 192037Z 34016G24KT 12/M03 A3023 RMK A01 T01161026  RH  037%=      5-min Rain = 0
KMD1 192038Z 33018KT 12/M03 A3023 RMK A01 T01171026  RH  037%=      5-min Rain = 0
KMD1 192039Z 32017KT 12/M03 A3023 RMK A01 T01151031  RH  036%=      5-min Rain = 0
KMD1 192040Z 32020G26KT 11/M03 A3023 RMK A01 T01131028  RH  037%=      5-min Rain = 0
KMD1 192041Z 31019G25KT 11/M03 A3023 RMK A01 T01141031  RH  036%=      5-min Rain = 0
KMD1 192042Z 32019G26KT 11/M03 A3023 RMK A01 T01141028  RH  037%=      5-min Rain = 0
KMD1 192043Z 32017KT 11/M03 A3023 RMK A01 T01141028  RH  037%=      5-min Rain = 0
KMD1 192044Z 33014G19KT 11/M03 A3023 RMK A01 T01141028  RH  037%=      5-min Rain = 0
KMD1 192045Z 33018G26KT 12/M03 A3023 RMK A01 T01151028  RH  037%=      5-min Rain = 0
KMD1 192046Z 32020G25KT 11/M03 A3023 RMK A01 T01141030  RH  037%=      5-min Rain = 0
KMD1 192047Z 33018KT 11/M03 A3023 RMK A01 T01141029  RH  037%=      5-min Rain = 0
KMD1 192048Z 34013G18KT 12/M03 A3023 RMK A01 T01151028  RH  037%=      5-min Rain = 0
KMD1 192049Z 33017KT 12/M03 A3023 RMK A01 T01171025  RH  037%=      5-min Rain = 0
KMD1 192050Z 33018KT 12/M03 A3023 RMK A01 T01171028  RH  036%=      5-min Rain = 0
KMD1 192051Z 34014KT 12/M03 A3023 RMK A01 T01161028  RH  037%=      5-min Rain = 0
KMD1 192052Z 34013KT 12/M02 A3023 RMK A01 T01161021  RH  038%=      5-min Rain = 0
KMD1 192053Z 34017KT 12/M02 A3023 RMK A01 T01191021  RH  038%=      5-min Rain = 0
KMD1 192054Z 33019G24KT 12/M03 A3023 RMK A01 T01191028  RH  036%=      5-min Rain = 0
KMD1 192055Z 34018KT 12/M03 A3023 RMK A01 T01171030  RH  036%=      5-min Rain = 0
KMD1 192056Z 33020G27KT 12/M03 A3023 RMK A01 T01171032  RH  035%=      5-min Rain = 0
KMD1 192057Z 35019G24KT 11/M03 A3023 RMK A01 T01141032  RH  036%=      5-min Rain = 0
KMD1 192058Z 35020G25KT 11/M03 A3023 RMK A01 T01141029  RH  037%=      5-min Rain = 0
KMD1 192059Z 34014KT 12/M03 A3023 RMK A01 T01151028  RH  037%=      5-min Rain = 0
KMD1 192100Z 34013G18KT 12/M03 A3023 RMK A01 T01171025  RH  037%=      5-min Rain = 0
KMD1 192101Z 34017G22KT 12/M02 A3023 RMK A01 T01191023  RH  037%=      5-min Rain = 0
KMD1 192102Z 34017KT 12/M03 A3023 RMK A01 T01191026  RH  036%=      5-min Rain = 0
KMD1 192103Z 34018KT 12/M03 A3023 RMK A01 T01181027  RH  036%=      5-min Rain = 0
KMD1 192104Z 33017KT 12/M03 A3023 RMK A01 T01171028  RH  036%=      5-min Rain = 0
KMD1 192105Z 32015KT 12/M02 A3023 RMK A01 T01171023  RH  038%=      5-min Rain = 0
KMD1 192106Z 34016KT 12/M02 A3023 RMK A01 T01191023  RH  037%=      5-min Rain = 0
KMD1 192107Z 34014KT 12/M02 A3023 RMK A01 T01201020  RH  038%=      5-min Rain = 0
KMD1 192108Z 34019G24KT 12/M02 A3023 RMK A01 T01211023  RH  037%=      5-min Rain = 0
KMD1 192109Z 33015KT 12/M02 A3023 RMK A01 T01201021  RH  037%=      5-min Rain = 0
KMD1 192110Z 33011KT 12/M02 A3023 RMK A01 T01201023  RH  037%=      5-min Rain = 0
KMD1 192111Z 33011KT 12/M02 A3023 RMK A01 T01221019  RH  038%=      5-min Rain = 0
KMD1 192112Z 34013G18KT 13/M02 A3023 RMK A01 T01251020  RH  036%=      5-min Rain = 0
KMD1 192113Z 33013KT 13/M02 A3023 RMK A01 T01251022  RH  036%=      5-min Rain = 0
KMD1 192114Z 34011KT 12/M02 A3024 RMK A01 T01241024  RH  036%=      5-min Rain = 0
KMD1 192115Z 33010KT 13/M02 A3023 RMK A01 T01251021  RH  036%=      5-min Rain = 0
KMD1 192116Z 32014G22KT 13/M02 A3023 RMK A01 T01251021  RH  036%=      5-min Rain = 0
KMD1 192117Z 32013G19KT 13/M03 A3023 RMK A01 T01261026  RH  035%=      5-min Rain = 0
KMD1 192118Z 33013G18KT 12/M02 A3023 RMK A01 T01241023  RH  036%=      5-min Rain = 0
KMD1 192119Z 34012KT 13/M02 A3024 RMK A01 T01251023  RH  036%=      5-min Rain = 0
KMD1 192120Z 34014G19KT 13/M02 A3024 RMK A01 T01251022  RH  036%=      5-min Rain = 0
KMD1 192121Z 34018KT 13/M02 A3023 RMK A01 T01251024  RH  035%=      5-min Rain = 0
KMD1 192122Z 33017G22KT 12/M03 A3023 RMK A01 T01221026  RH  035%=      5-min Rain = 0
KMD1 192123Z 33013G19KT 12/M02 A3023 RMK A01 T01211024  RH  036%=      5-min Rain = 0
KMD1 192124Z 35016G22KT 12/M02 A3023 RMK A01 T01231022  RH  036%=      5-min Rain = 0
KMD1 192125Z 33011G16KT 12/M02 A3024 RMK A01 T01241021  RH  037%=      5-min Rain = 0
KMD1 192126Z 32012KT 13/M02 A3024 RMK A01 T01261020  RH  036%=      5-min Rain = 0
KMD1 192127Z 34014G20KT 13/M02 A3023 RMK A01 T01271021  RH  036%=      5-min Rain = 0
KMD1 192128Z 33015KT 13/M02 A3023 RMK A01 T01261023  RH  035%=      5-min Rain = 0
KMD1 192129Z 33014KT 13/M02 A3023 RMK A01 T01251023  RH  036%=      5-min Rain = 0
KMD1 192130Z 32014G20KT 12/M03 A3023 RMK A01 T01241026  RH  035%=      5-min Rain = 0
KMD1 192131Z 32015KT 12/M02 A3023 RMK A01 T01241024  RH  036%=      5-min Rain = 0
KMD1 192132Z 33013KT 12/M02 A3023 RMK A01 T01241024  RH  036%=      5-min Rain = 0
KMD1 192133Z 35015KT 13/M02 A3023 RMK A01 T01251020  RH  036%=      5-min Rain = 0
KMD1 192134Z 33017G22KT 13/M02 A3023 RMK A01 T01261024  RH  035%=      5-min Rain = 0
KMD1 192135Z 33017KT 13/M03 A3023 RMK A01 T01251028  RH  034%=      5-min Rain = 0
KMD1 192136Z 34014KT 12/M03 A3023 RMK A01 T01241026  RH  035%=      5-min Rain = 0
KMD1 192137Z 33013G19KT 12/M03 A3023 RMK A01 T01241028  RH  035%=      5-min Rain = 0
KMD1 192138Z 33020G25KT 13/M03 A3023 RMK A01 T01251027  RH  035%=      5-min Rain = 0
KMD1 192139Z 34014G19KT 12/M03 A3023 RMK A01 T01241025  RH  035%=      5-min Rain = 0
KMD1 192140Z 35022KT 12/M03 A3023 RMK A01 T01241026  RH  035%=      5-min Rain = 0
KMD1 192141Z 34021G27KT 12/M03 A3023 RMK A01 T01231028  RH  035%=      5-min Rain = 0
KMD1 192142Z 34020G25KT 12/M03 A3023 RMK A01 T01221029  RH  035%=      5-min Rain = 0
KMD1 192143Z 34018G24KT 12/M03 A3023 RMK A01 T01201028  RH  035%=      5-min Rain = 0
KMD1 192144Z 33015KT 12/M02 A3023 RMK A01 T01211024  RH  036%=      5-min Rain = 0
KMD1 192145Z 33013KT 12/M02 A3023 RMK A01 T01221024  RH  036%=      5-min Rain = 0
KMD1 192146Z 33010KT 12/M02 A3023 RMK A01 T01231023  RH  036%=      5-min Rain = 0
KMD1 192147Z 34010G16KT 13/M02 A3023 RMK A01 T01251019  RH  037%=      5-min Rain = 0
KMD1 192148Z 33011KT 13/M02 A3023 RMK A01 T01251021  RH  036%=      5-min Rain = 0
KMD1 192149Z 33014G21KT 13/M02 A3023 RMK A01 T01251024  RH  035%=      5-min Rain = 0
KMD1 192150Z 32016G21KT 12/M03 A3023 RMK A01 T01241030  RH  034%=      5-min Rain = 0
KMD1 192151Z 33013G18KT 12/M03 A3023 RMK A01 T01241028  RH  035%=      5-min Rain = 0
KMD1 192152Z 32020G25KT 12/M03 A3023 RMK A01 T01241026  RH  035%=      5-min Rain = 0
KMD1 192153Z 33020G27KT 12/M03 A3023 RMK A01 T01241031  RH  034%=      5-min Rain = 0
KMD1 192154Z 34023G31KT 12/M03 A3023 RMK A01 T01231030  RH  034%=      5-min Rain = 0
KMD1 192155Z 35021KT 12/M03 A3024 RMK A01 T01231031  RH  034%=      5-min Rain = 0
KMD1 192156Z 34019G26KT 12/M03 A3023 RMK A01 T01221030  RH  034%=      5-min Rain = 0
KMD1 192157Z 33021G27KT 12/M03 A3023 RMK A01 T01221029  RH  035%=      5-min Rain = 0
KMD1 192158Z 34018G24KT 12/M03 A3023 RMK A01 T01221032  RH  034%=      5-min Rain = 0
KMD1 192159Z 33021KT 12/M03 A3023 RMK A01 T01221031  RH  034%=      5-min Rain = 0
KMD1 192200Z 33020G27KT 12/M03 A3023 RMK A01 T01211031  RH  034%=      5-min Rain = 0
KMD1 192201Z 34018G25KT 12/M03 A3023 RMK A01 T01201032  RH  034%=      5-min Rain = 0
KMD1 192202Z 33020G26KT 12/M03 A3023 RMK A01 T01201030  RH  035%=      5-min Rain = 0
KMD1 192203Z 34017KT 12/M03 A3023 RMK A01 T01201030  RH  035%=      5-min Rain = 0
KMD1 192204Z 33019G26KT 12/M03 A3023 RMK A01 T01201031  RH  035%=      5-min Rain = 0
KMD1 192205Z 34020KT 12/M03 A3023 RMK A01 T01201031  RH  035%=      5-min Rain = 0
KMD1 192206Z 33018KT 12/M03 A3023 RMK A01 T01201030  RH  035%=      5-min Rain = 0
KMD1 192207Z 33015KT 12/M03 A3024 RMK A01 T01201028  RH  035%=      5-min Rain = 0
KMD1 192208Z 34015KT 12/M03 A3024 RMK A01 T01211027  RH  035%=      5-min Rain = 0
KMD1 192209Z 32012KT 12/M03 A3024 RMK A01 T01211028  RH  035%=      5-min Rain = 0
KMD1 192210Z 32015KT 12/M03 A3024 RMK A01 T01221026  RH  036%=      5-min Rain = 0
KMD1 192211Z 32014KT 12/M03 A3024 RMK A01 T01221027  RH  035%=      5-min Rain = 0
KMD1 192212Z 33017KT 12/M03 A3024 RMK A01 T01221027  RH  035%=      5-min Rain = 0
KMD1 192213Z 33015G21KT 12/M03 A3024 RMK A01 T01231029  RH  035%=      5-min Rain = 0
KMD1 192214Z 34016G23KT 12/M03 A3024 RMK A01 T01231026  RH  035%=      5-min Rain = 0
KMD1 192215Z 33017KT 12/M03 A3024 RMK A01 T01231029  RH  035%=      5-min Rain = 0
KMD1 192216Z 35014G19KT 12/M03 A3024 RMK A01 T01221027  RH  035%=      5-min Rain = 0
KMD1 192217Z 34020KT 12/M03 A3024 RMK A01 T01221027  RH  035%=      5-min Rain = 0
KMD1 192218Z 33021KT 12/M03 A3024 RMK A01 T01221029  RH  035%=      5-min Rain = 0
KMD1 192219Z 33017KT 12/M03 A3024 RMK A01 T01211028  RH  035%=      5-min Rain = 0
KMD1 192220Z 32017G23KT 12/M03 A3024 RMK A01 T01211027  RH  035%=      5-min Rain = 0
KMD1 192221Z 34015KT 12/M03 A3024 RMK A01 T01211028  RH  035%=      5-min Rain = 0
KMD1 192222Z 33018KT 12/M03 A3024 RMK A01 T01211027  RH  035%=      5-min Rain = 0
KMD1 192223Z 32017KT 12/M03 A3024 RMK A01 T01211027  RH  036%=      5-min Rain = 0
KMD1 192224Z 32017G22KT 12/M03 A3024 RMK A01 T01221028  RH  035%=      5-min Rain = 0
KMD1 192225Z 34019KT 12/M03 A3024 RMK A01 T01221028  RH  035%=      5-min Rain = 0
KMD1 192226Z 34018KT 12/M03 A3024 RMK A01 T01221030  RH  035%=      5-min Rain = 0
KMD1 192227Z 33019G25KT 12/M03 A3024 RMK A01 T01211029  RH  035%=      5-min Rain = 0
KMD1 192228Z 34018KT 12/M03 A3024 RMK A01 T01211031  RH  035%=      5-min Rain = 0
KMD1 192229Z 34018G24KT 12/M03 A3024 RMK A01 T01211028  RH  035%=      5-min Rain = 0
KMD1 192230Z 34017KT 12/M03 A3024 RMK A01 T01211030  RH  035%=      5-min Rain = 0
KMD1 192231Z 34016G22KT 12/M03 A3024 RMK A01 T01211027  RH  036%=      5-min Rain = 0
KMD1 192232Z 33015G21KT 12/M03 A3024 RMK A01 T01211028  RH  035%=      5-min Rain = 0
KMD1 192233Z 34019G24KT 12/M03 A3024 RMK A01 T01211028  RH  035%=      5-min Rain = 0
KMD1 192234Z 33017KT 12/M03 A3024 RMK A01 T01201028  RH  035%=      5-min Rain = 0
KMD1 192235Z 33014KT 12/M03 A3024 RMK A01 T01201028  RH  036%=      5-min Rain = 0
KMD1 192236Z 34014KT 12/M03 A3024 RMK A01 T01201026  RH  036%=      5-min Rain = 0
KMD1 192237Z 33014G20KT 12/M03 A3024 RMK A01 T01211025  RH  036%=      5-min Rain = 0
KMD1 192238Z 34016KT 12/M03 A3024 RMK A01 T01211025  RH  036%=      5-min Rain = 0
KMD1 192239Z 35016KT 12/M03 A3024 RMK A01 T01211025  RH  036%=      5-min Rain = 0
KMD1 192240Z 34012KT 12/M02 A3024 RMK A01 T01211022  RH  037%=      5-min Rain = 0
KMD1 192241Z 33014KT 12/M02 A3024 RMK A01 T01211024  RH  036%=      5-min Rain = 0
KMD1 192242Z 34013KT 12/M02 A3024 RMK A01 T01211023  RH  037%=      5-min Rain = 0
KMD1 192243Z 34018KT 12/M03 A3024 RMK A01 T01211025  RH  036%=      5-min Rain = 0
KMD1 192244Z 33015G20KT 12/M03 A3024 RMK A01 T01201026  RH  036%=      5-min Rain = 0
KMD1 192245Z 33016G21KT 12/M03 A3024 RMK A01 T01191025  RH  036%=      5-min Rain = 0
KMD1 192246Z 34013KT 12/M03 A3024 RMK A01 T01191026  RH  036%=      5-min Rain = 0
KMD1 192247Z 34011G17KT 12/M03 A3024 RMK A01 T01191025  RH  037%=      5-min Rain = 0
KMD1 192248Z 34010KT 12/M02 A3024 RMK A01 T01191024  RH  037%=      5-min Rain = 0
KMD1 192249Z 35014KT 12/M02 A3024 RMK A01 T01201022  RH  037%=      5-min Rain = 0
KMD1 192250Z 34012KT 12/M03 A3024 RMK A01 T01201025  RH  036%=      5-min Rain = 0
KMD1 192251Z 33010KT 12/M02 A3024 RMK A01 T01201023  RH  037%=      5-min Rain = 0
KMD1 192252Z 33015G24KT 12/M02 A3024 RMK A01 T01211023  RH  037%=      5-min Rain = 0
KMD1 192253Z 34020G26KT 12/M03 A3024 RMK A01 T01201027  RH  036%=      5-min Rain = 0
KMD1 192254Z 34018G24KT 12/M03 A3024 RMK A01 T01191026  RH  036%=      5-min Rain = 0
KMD1 192255Z 34016KT 12/M03 A3024 RMK A01 T01191027  RH  036%=      5-min Rain = 0
KMD1 192256Z 32014KT 12/M03 A3024 RMK A01 T01181027  RH  036%=      5-min Rain = 0
KMD1 192257Z 32016KT 12/M03 A3024 RMK A01 T01181027  RH  036%=      5-min Rain = 0
KMD1 192258Z 33013KT 12/M03 A3024 RMK A01 T01181026  RH  036%=      5-min Rain = 0
KMD1 192259Z 33012KT 12/M03 A3024 RMK A01 T01191025  RH  037%=      5-min Rain = 0
KMD1 192300Z 34014KT 12/M03 A3024 RMK A01 T01191027  RH  036%=      5-min Rain = 0
KMD1 192301Z 33012KT 12/M03 A3024 RMK A01 T01191026  RH  036%=      5-min Rain = 0
KMD1 192302Z 33013KT 12/M03 A3024 RMK A01 T01191025  RH  037%=      5-min Rain = 0
KMD1 192303Z 33016G25KT 12/M03 A3024 RMK A01 T01191025  RH  037%=      5-min Rain = 0
KMD1 192304Z 33016KT 12/M03 A3024 RMK A01 T01181028  RH  036%=      5-min Rain = 0
KMD1 192305Z 34015KT 12/M03 A3024 RMK A01 T01181027  RH  036%=      5-min Rain = 0
KMD1 192306Z 33016G21KT 12/M03 A3024 RMK A01 T01171027  RH  036%=      5-min Rain = 0
KMD1 192307Z 34018KT 12/M03 A3024 RMK A01 T01171030  RH  036%=      5-min Rain = 0
KMD1 192308Z 34014G24KT 12/M03 A3024 RMK A01 T01171028  RH  036%=      5-min Rain = 0
KMD1 192309Z 34017G22KT 12/M03 A3024 RMK A01 T01161028  RH  036%=      5-min Rain = 0
KMD1 192310Z 34017G23KT 12/M03 A3024 RMK A01 T01161028  RH  036%=      5-min Rain = 0
KMD1 192311Z 34014KT 12/M03 A3024 RMK A01 T01161027  RH  037%=      5-min Rain = 0
KMD1 192312Z 33012KT 12/M03 A3024 RMK A01 T01161026  RH  037%=      5-min Rain = 0
KMD1 192313Z 34015KT 12/M03 A3025 RMK A01 T01161027  RH  037%=      5-min Rain = 0
KMD1 192314Z 34016KT 12/M03 A3025 RMK A01 T01161027  RH  037%=      5-min Rain = 0
KMD1 192315Z 33015KT 12/M03 A3025 RMK A01 T01151028  RH  037%=      5-min Rain = 0
KMD1 192316Z 33015G20KT 12/M03 A3025 RMK A01 T01151028  RH  037%=      5-min Rain = 0
KMD1 192317Z 33016KT 12/M03 A3025 RMK A01 T01151027  RH  037%=      5-min Rain = 0
KMD1 192318Z 33015G21KT 12/M03 A3025 RMK A01 T01151029  RH  037%=      5-min Rain = 0
KMD1 192319Z 34014KT 12/M03 A3025 RMK A01 T01151028  RH  037%=      5-min Rain = 0
KMD1 192320Z 34016KT 11/M03 A3025 RMK A01 T01141028  RH  037%=      5-min Rain = 0
KMD1 192321Z 33015KT 11/M03 A3025 RMK A01 T01141028  RH  037%=      5-min Rain = 0
KMD1 192322Z 34016KT 11/M03 A3025 RMK A01 T01141029  RH  037%=      5-min Rain = 0
KMD1 192323Z 34012G17KT 11/M03 A3025 RMK A01 T01141026  RH  037%=      5-min Rain = 0
KMD1 192324Z 35013KT 11/M03 A3025 RMK A01 T01131027  RH  037%=      5-min Rain = 0
KMD1 192325Z 34012G18KT 11/M03 A3025 RMK A01 T01131025  RH  038%=      5-min Rain = 0
KMD1 192326Z 35016KT 11/M03 A3025 RMK A01 T01131026  RH  038%=      5-min Rain = 0
KMD1 192327Z 34012KT 11/M03 A3025 RMK A01 T01121025  RH  038%=      5-min Rain = 0
KMD1 192328Z 33016G21KT 11/M03 A3025 RMK A01 T01121025  RH  038%=      5-min Rain = 0
KMD1 192329Z 33015KT 11/M03 A3025 RMK A01 T01121027  RH  038%=      5-min Rain = 0
KMD1 192330Z 34015G21KT 11/M03 A3025 RMK A01 T01121027  RH  038%=      5-min Rain = 0
KMD1 192331Z 34013KT 11/M03 A3025 RMK A01 T01121028  RH  038%=      5-min Rain = 0
KMD1 192332Z 33011KT 11/M03 A3025 RMK A01 T01121026  RH  038%=      5-min Rain = 0
KMD1 192333Z 34014KT 11/M03 A3025 RMK A01 T01121027  RH  038%=      5-min Rain = 0
KMD1 192334Z 33014KT 11/M03 A3025 RMK A01 T01121026  RH  038%=      5-min Rain = 0
KMD1 192335Z 33009KT 11/M03 A3025 RMK A01 T01111026  RH  038%=      5-min Rain = 0
KMD1 192336Z 34008KT 11/M03 A3025 RMK A01 T01111025  RH  038%=      5-min Rain = 0
KMD1 192337Z 34009G14KT 11/M02 A3025 RMK A01 T01101024  RH  039%=      5-min Rain = 0
KMD1 192338Z 34012KT 11/M03 A3025 RMK A01 T01101025  RH  039%=      5-min Rain = 0
KMD1 192339Z 34011G17KT 11/M02 A3025 RMK A01 T01101024  RH  039%=      5-min Rain = 0
KMD1 192340Z 35014KT 11/M03 A3025 RMK A01 T01091025  RH  039%=      5-min Rain = 0
KMD1 192341Z 33013KT 11/M03 A3025 RMK A01 T01091026  RH  039%=      5-min Rain = 0
KMD1 192342Z 34016KT 11/M03 A3025 RMK A01 T01091025  RH  039%=      5-min Rain = 0
KMD1 192343Z 34013KT 11/M03 A3025 RMK A01 T01091027  RH  038%=      5-min Rain = 0
KMD1 192344Z 34010KT 11/M03 A3025 RMK A01 T01091026  RH  039%=      5-min Rain = 0
KMD1 192345Z 33010KT 11/M03 A3025 RMK A01 T01081025  RH  039%=      5-min Rain = 0
KMD1 192346Z 34011KT 11/M03 A3025 RMK A01 T01091026  RH  039%=      5-min Rain = 0
KMD1 192347Z 33012KT 11/M03 A3025 RMK A01 T01081027  RH  039%=      5-min Rain = 0
KMD1 192348Z 33011KT 11/M03 A3025 RMK A01 T01081026  RH  039%=      5-min Rain = 0
KMD1 192349Z 34010KT 11/M03 A3026 RMK A01 T01081025  RH  039%=      5-min Rain = 0
KMD1 192350Z 34010KT 11/M03 A3026 RMK A01 T01071025  RH  040%=      5-min Rain = 0
KMD1 192351Z 34010G16KT 11/M02 A3026 RMK A01 T01071024  RH  040%=      5-min Rain = 0
KMD1 192352Z 34013KT 11/M03 A3026 RMK A01 T01061026  RH  040%=      5-min Rain = 0
KMD1 192353Z 34010KT 11/M03 A3026 RMK A01 T01061026  RH  040%=      5-min Rain = 0
KMD1 192354Z 34008KT 11/M03 A3026 RMK A01 T01061025  RH  040%=      5-min Rain = 0
KMD1 192355Z 33012KT 11/M03 A3026 RMK A01 T01051025  RH  040%=      5-min Rain = 0
KMD1 192356Z 33010KT 11/M03 A3026 RMK A01 T01051027  RH  040%=      5-min Rain = 0
KMD1 192357Z 33009KT 11/M03 A3026 RMK A01 T01061025  RH  040%=      5-min Rain = 0
KMD1 192358Z 33009KT 11/M03 A3026 RMK A01 T01051025  RH  040%=      5-min Rain = 0
KMD1 192359Z 34008KT 10/M03 A3026 RMK A01 T01041026  RH  040%=      5-min Rain = 0
KMD1 200000Z 33007KT 10/M02 A3026 RMK A01 T01041024  RH  041%=      5-min Rain = 0
KMD1 200001Z 33008KT 10/M03 A3026 RMK A01 T01031025  RH  041%=      5-min Rain = 0
KMD1 200002Z 33008KT 10/M02 A3026 RMK A01 T01031024  RH  041%=      5-min Rain = 0
KMD1 200003Z 34009KT 10/M02 A3026 RMK A01 T01021024  RH  041%=      5-min Rain = 0
KMD1 200004Z 33007KT 10/M02 A3026 RMK A01 T01021024  RH  041%=      5-min Rain = 0
KMD1 200005Z 34006KT 10/M02 A3026 RMK A01 T01011024  RH  041%=      5-min Rain = 0
KMD1 200006Z 33005KT 10/M03 A3026 RMK A01 T01001025  RH  041%=      5-min Rain = 0
KMD1 200007Z 34006KT 10/M03 A3026 RMK A01 T01001026  RH  041%=      5-min Rain = 0
KMD1 200008Z 33005KT 10/M03 A3026 RMK A01 T01001025  RH  042%=      5-min Rain = 0
KMD1 200009Z 34008KT 10/M03 A3026 RMK A01 T00991025  RH  042%=      5-min Rain = 0
KMD1 200010Z 34008KT 10/M03 A3026 RMK A01 T00991026  RH  041%=      5-min Rain = 0
KMD1 200011Z 33007KT 10/M03 A3027 RMK A01 T00991026  RH  041%=      5-min Rain = 0
KMD1 200012Z 33006KT 10/M03 A3027 RMK A01 T01001026  RH  041%=      5-min Rain = 0
KMD1 200013Z 34005KT 10/M02 A3027 RMK A01 T01001024  RH  042%=      5-min Rain = 0
KMD1 200014Z 32006KT 10/M02 A3027 RMK A01 T00981024  RH  042%=      5-min Rain = 0
KMD1 200015Z 34007KT 10/M02 A3027 RMK A01 T00971024  RH  043%=      5-min Rain = 0
KMD1 200016Z 33006KT 10/M03 A3027 RMK A01 T00961025  RH  042%=      5-min Rain = 0
KMD1 200017Z 32006KT 10/M03 A3027 RMK A01 T00971025  RH  043%=      5-min Rain = 0
KMD1 200018Z 34009KT 10/M03 A3027 RMK A01 T00971025  RH  042%=      5-min Rain = 0
KMD1 200019Z 33006KT 10/M03 A3027 RMK A01 T00981026  RH  042%=      5-min Rain = 0
KMD1 200020Z 34007KT 10/M02 A3027 RMK A01 T00981024  RH  042%=      5-min Rain = 0
KMD1 200021Z 33006KT 10/M03 A3027 RMK A01 T00971025  RH  042%=      5-min Rain = 0
KMD1 200022Z 33007KT 10/M03 A3027 RMK A01 T00961025  RH  043%=      5-min Rain = 0
KMD1 200023Z 33006KT 10/M03 A3027 RMK A01 T00961026  RH  042%=      5-min Rain = 0
KMD1 200024Z 34007KT 10/M03 A3027 RMK A01 T00971026  RH  042%=      5-min Rain = 0
KMD1 200025Z 33008KT 10/M03 A3027 RMK A01 T00971026  RH  042%=      5-min Rain = 0
KMD1 200026Z 34008KT 10/M03 A3027 RMK A01 T00961025  RH  042%=      5-min Rain = 0
KMD1 200027Z 34006KT 10/M02 A3027 RMK A01 T00961024  RH  043%=      5-min Rain = 0
KMD1 200028Z 34006KT 09/M02 A3027 RMK A01 T00941024  RH  044%=      5-min Rain = 0
KMD1 200029Z 33005KT 09/M02 A3027 RMK A01 T00931024  RH  044%=      5-min Rain = 0
KMD1 200030Z 33006KT 09/M02 A3027 RMK A01 T00921024  RH  044%=      5-min Rain = 0
KMD1 200031Z 34006KT 09/M02 A3027 RMK A01 T00911024  RH  044%=      5-min Rain = 0
KMD1 200032Z 34006KT 09/M02 A3027 RMK A01 T00911024  RH  044%=      5-min Rain = 0
KMD1 200033Z 34006KT 09/M02 A3027 RMK A01 T00911023  RH  045%=      5-min Rain = 0
KMD1 200034Z 34007KT 09/M03 A3027 RMK A01 T00901025  RH  044%=      5-min Rain = 0
KMD1 200035Z 33006KT 09/M02 A3027 RMK A01 T00901024  RH  044%=      5-min Rain = 0
KMD1 200036Z 33006KT 09/M03 A3027 RMK A01 T00901025  RH  044%=      5-min Rain = 0
KMD1 200037Z 33006KT 09/M02 A3027 RMK A01 T00911024  RH  044%=      5-min Rain = 0
KMD1 200038Z 33006KT 09/M03 A3027 RMK A01 T00911025  RH  044%=      5-min Rain = 0
KMD1 200039Z 34006KT 09/M03 A3027 RMK A01 T00911025  RH  044%=      5-min Rain = 0
KMD1 200040Z 34005KT 09/M02 A3027 RMK A01 T00911024  RH  044%=      5-min Rain = 0
KMD1 200041Z 34006KT 09/M02 A3027 RMK A01 T00901024  RH  045%=      5-min Rain = 0
KMD1 200042Z 34005KT 09/M02 A3027 RMK A01 T00891024  RH  045%=      5-min Rain = 0
KMD1 200043Z 34005KT 09/M02 A3027 RMK A01 T00881024  RH  045%=      5-min Rain = 0
KMD1 200044Z 34005KT 09/M02 A3027 RMK A01 T00871024  RH  045%=      5-min Rain = 0
KMD1 200045Z 33004KT 09/M02 A3027 RMK A01 T00881024  RH  045%=      5-min Rain = 0
KMD1 200046Z 34004KT 09/M02 A3027 RMK A01 T00871024  RH  046%=      5-min Rain = 0
KMD1 200047Z 34004KT 09/M02 A3027 RMK A01 T00861024  RH  046%=      5-min Rain = 0
KMD1 200048Z 34004KT 09/M02 A3027 RMK A01 T00851024  RH  046%=      5-min Rain = 0
KMD1 200049Z 34004KT 08/M02 A3027 RMK A01 T00841024  RH  047%=      5-min Rain = 0
KMD1 200050Z 33004KT 08/M02 A3027 RMK A01 T00831024  RH  047%=      5-min Rain = 0
KMD1 200051Z 34004KT 08/M02 A3027 RMK A01 T00821024  RH  047%=      5-min Rain = 0
KMD1 200052Z 34003KT 08/M03 A3027 RMK A01 T00821025  RH  047%=      5-min Rain = 0
KMD1 200053Z 34004KT 08/M03 A3027 RMK A01 T00821025  RH  047%=      5-min Rain = 0
KMD1 200054Z 34004KT 08/M03 A3027 RMK A01 T00831025  RH  047%=      5-min Rain = 0
KMD1 200055Z 34003KT 08/M03 A3027 RMK A01 T00821025  RH  047%=      5-min Rain = 0
KMD1 200056Z 33003KT 08/M03 A3027 RMK A01 T00821025  RH  047%=      5-min Rain = 0
KMD1 200057Z 33003KT 08/M03 A3027 RMK A01 T00821025  RH  047%=      5-min Rain = 0
KMD1 200058Z 32002KT 08/M03 A3027 RMK A01 T00821025  RH  047%=      5-min Rain = 0
KMD1 200059Z 33003KT 08/M03 A3027 RMK A01 T00811025  RH  047%=      5-min Rain = 0
KMD1 200100Z 33003KT 08/M03 A3027 RMK A01 T00811025  RH  047%=      5-min Rain = 0
KMD1 200101Z 33003KT 08/M03 A3027 RMK A01 T00811025  RH  047%=      5-min Rain = 0
KMD1 200102Z 32003KT 08/M03 A3027 RMK A01 T00801026  RH  047%=      5-min Rain = 0
KMD1 200103Z 32003KT 08/M03 A3027 RMK A01 T00811026  RH  047%=      5-min Rain = 0
KMD1 200104Z 33003KT 08/M03 A3027 RMK A01 T00811026  RH  047%=      5-min Rain = 0
KMD1 200105Z 32003KT 08/M03 A3028 RMK A01 T00801026  RH  047%=      5-min Rain = 0
KMD1 200106Z 32002KT 08/M03 A3028 RMK A01 T00801026  RH  047%=      5-min Rain = 0
KMD1 200107Z 33003KT 08/M03 A3028 RMK A01 T00801026  RH  047%=      5-min Rain = 0
KMD1 200108Z 32003KT 08/M03 A3028 RMK A01 T00801026  RH  047%=      5-min Rain = 0
KMD1 200109Z 33002KT 08/M03 A3028 RMK A01 T00801026  RH  047%=      5-min Rain = 0
KMD1 200110Z 33002KT 08/M03 A3028 RMK A01 T00801026  RH  047%=      5-min Rain = 0
KMD1 200111Z 33003KT 08/M03 A3028 RMK A01 T00801026  RH  047%=      5-min Rain = 0
KMD1 200112Z 32003KT 08/M03 A3028 RMK A01 T00791026  RH  047%=      5-min Rain = 0
KMD1 200113Z 32002KT 08/M03 A3028 RMK A01 T00791026  RH  047%=      5-min Rain = 0
KMD1 200114Z 31003KT 08/M03 A3028 RMK A01 T00791026  RH  047%=      5-min Rain = 0
KMD1 200115Z 31003KT 08/M03 A3028 RMK A01 T00781026  RH  048%=      5-min Rain = 0
KMD1 200116Z 31003KT 08/M03 A3028 RMK A01 T00781026  RH  048%=      5-min Rain = 0
KMD1 200117Z 30003KT 08/M03 A3028 RMK A01 T00781026  RH  048%=      5-min Rain = 0
KMD1 200118Z 30003KT 08/M03 A3028 RMK A01 T00771026  RH  048%=      5-min Rain = 0
KMD1 200119Z 30003KT 08/M03 A3029 RMK A01 T00771026  RH  048%=      5-min Rain = 0
KMD1 200120Z 30003KT 08/M03 A3029 RMK A01 T00761026  RH  048%=      5-min Rain = 0
KMD1 200121Z 30003KT 08/M03 A3029 RMK A01 T00751027  RH  048%=      5-min Rain = 0
KMD1 200122Z 30003KT 08/M03 A3029 RMK A01 T00751027  RH  048%=      5-min Rain = 0
KMD1 200123Z 30003KT 08/M03 A3029 RMK A01 T00751027  RH  048%=      5-min Rain = 0
KMD1 200124Z 31003KT 08/M03 A3029 RMK A01 T00751028  RH  048%=      5-min Rain = 0
KMD1 200125Z 30003KT 08/M03 A3029 RMK A01 T00751027  RH  048%=      5-min Rain = 0
KMD1 200126Z 31003KT 07/M03 A3029 RMK A01 T00741028  RH  048%=      5-min Rain = 0
KMD1 200127Z 31003KT 07/M03 A3029 RMK A01 T00741027  RH  049%=      5-min Rain = 0
KMD1 200128Z 31003KT 07/M03 A3029 RMK A01 T00731027  RH  049%=      5-min Rain = 0
KMD1 200129Z 32003KT 07/M03 A3029 RMK A01 T00731027  RH  049%=      5-min Rain = 0
KMD1 200130Z 32003KT 07/M03 A3029 RMK A01 T00721026  RH  050%=      5-min Rain = 0
KMD1 200131Z 32004KT 07/M03 A3028 RMK A01 T00711027  RH  050%=      5-min Rain = 0
KMD1 200132Z 32003KT 07/M03 A3028 RMK A01 T00701027  RH  050%=      5-min Rain = 0
KMD1 200133Z 33003KT 07/M03 A3028 RMK A01 T00701027  RH  050%=      5-min Rain = 0
KMD1 200134Z 33003KT 07/M03 A3028 RMK A01 T00701027  RH  050%=      5-min Rain = 0
KMD1 200135Z 34003KT 07/M03 A3028 RMK A01 T00701027  RH  050%=      5-min Rain = 0
KMD1 200136Z 35003KT 07/M03 A3028 RMK A01 T00691028  RH  050%=      5-min Rain = 0
KMD1 200137Z 35002KT 07/M03 A3028 RMK A01 T00691027  RH  050%=      5-min Rain = 0
KMD1 200138Z 35002KT 07/M03 A3029 RMK A01 T00691027  RH  050%=      5-min Rain = 0
KMD1 200139Z 00002KT 07/M03 A3029 RMK A01 T00691027  RH  050%=      5-min Rain = 0
KMD1 200140Z 00002KT 07/M03 A3029 RMK A01 T00691027  RH  051%=      5-min Rain = 0
KMD1 200141Z 01002KT 07/M02 A3029 RMK A01 T00671024  RH  052%=      5-min Rain = 0
KMD1 200142Z 01002KT 07/M02 A3029 RMK A01 T00651023  RH  053%=      5-min Rain = 0
KMD1 200143Z 02001KT 06/M02 A3029 RMK A01 T00641022  RH  054%=      5-min Rain = 0
KMD1 200144Z 02001KT 06/M02 A3029 RMK A01 T00631021  RH  055%=      5-min Rain = 0
KMD1 200145Z 04001KT 06/M02 A3029 RMK A01 T00621023  RH  054%=      5-min Rain = 0
KMD1 200146Z 04001KT 06/M02 A3029 RMK A01 T00621024  RH  054%=      5-min Rain = 0
KMD1 200147Z 04001KT 06/M02 A3029 RMK A01 T00621023  RH  054%=      5-min Rain = 0
KMD1 200148Z 05001KT 06/M02 A3029 RMK A01 T00611023  RH  055%=      5-min Rain = 0
KMD1 200149Z 05001KT 06/M02 A3029 RMK A01 T00601024  RH  055%=      5-min Rain = 0
KMD1 200150Z 04000KT 06/M02 A3029 RMK A01 T00591024  RH  055%=      5-min Rain = 0
KMD1 200151Z 06001KT 06/M02 A3029 RMK A01 T00581023  RH  056%=      5-min Rain = 0
KMD1 200152Z 07000KT 06/M02 A3029 RMK A01 T00571024  RH  056%=      5-min Rain = 0
KMD1 200153Z 08000KT 06/M03 A3029 RMK A01 T00561025  RH  056%=      5-min Rain = 0
KMD1 200154Z 00000KT 06/M03 A3029 RMK A01 T00551025  RH  056%=      5-min Rain = 0
KMD1 200155Z 00000KT 05/M03 A3029 RMK A01 T00531026  RH  056%=      5-min Rain = 0
KMD1 200156Z 00000KT 05/M03 A3029 RMK A01 T00531026  RH  057%=      5-min Rain = 0
KMD1 200157Z 00000KT 05/M03 A3029 RMK A01 T00521027  RH  057%=      5-min Rain = 0
KMD1 200158Z 00000KT 05/M03 A3029 RMK A01 T00511027  RH  057%=      5-min Rain = 0
KMD1 200159Z 00000KT 05/M03 A3029 RMK A01 T00501028  RH  057%=      5-min Rain = 0
KMD1 200200Z 00000KT 05/M03 A3029 RMK A01 T00501028  RH  057%=      5-min Rain = 0
KMD1 200201Z 00000KT 05/M03 A3029 RMK A01 T00511028  RH  057%=      5-min Rain = 0
KMD1 200202Z 00000KT 05/M03 A3029 RMK A01 T00511029  RH  056%=      5-min Rain = 0
KMD1 200203Z 00000KT 05/M03 A303 RMK A01 T00511029  RH  056%=      5-min Rain = 0
KMD1 200204Z 32000KT 05/M03 A303 RMK A01 T00521029  RH  056%=      5-min Rain = 0
KMD1 200205Z 32001KT 05/M03 A303 RMK A01 T00521028  RH  056%=      5-min Rain = 0
KMD1 200206Z 32001KT 05/M03 A303 RMK A01 T00521026  RH  057%=      5-min Rain = 0
KMD1 200207Z 33001KT 05/M03 A303 RMK A01 T00511025  RH  058%=      5-min Rain = 0
KMD1 200208Z 33002KT 05/M02 A303 RMK A01 T00501024  RH  059%=      5-min Rain = 0
KMD1 200209Z 34002KT 05/M02 A303 RMK A01 T00491024  RH  059%=      5-min Rain = 0
KMD1 200210Z 33002KT 05/M03 A303 RMK A01 T00481025  RH  059%=      5-min Rain = 0
KMD1 200211Z 33003KT 05/M03 A303 RMK A01 T00471025  RH  060%=      5-min Rain = 0
KMD1 200212Z 34003KT 05/M03 A303 RMK A01 T00471025  RH  059%=      5-min Rain = 0
KMD1 200213Z 34004KT 05/M03 A303 RMK A01 T00501026  RH  058%=      5-min Rain = 0
KMD1 200214Z 34004KT 05/M03 A303 RMK A01 T00521027  RH  057%=      5-min Rain = 0
KMD1 200215Z 34004KT 05/M03 A303 RMK A01 T00541028  RH  056%=      5-min Rain = 0
KMD1 200216Z 34004KT 06/M03 A303 RMK A01 T00551028  RH  055%=      5-min Rain = 0
KMD1 200217Z 34005KT 06/M03 A303 RMK A01 T00571027  RH  055%=      5-min Rain = 0
KMD1 200218Z 34005KT 06/M03 A303 RMK A01 T00571027  RH  055%=      5-min Rain = 0
KMD1 200219Z 34004KT 06/M03 A303 RMK A01 T00581027  RH  055%=      5-min Rain = 0
KMD1 200220Z 34004KT 06/M03 A303 RMK A01 T00581027  RH  055%=      5-min Rain = 0
KMD1 200221Z 34004KT 06/M03 A303 RMK A01 T00571026  RH  055%=      5-min Rain = 0
KMD1 200222Z 34003KT 06/M03 A303 RMK A01 T00551026  RH  056%=      5-min Rain = 0
KMD1 200223Z 34003KT 05/M03 A303 RMK A01 T00541026  RH  056%=      5-min Rain = 0
KMD1 200224Z 34003KT 05/M03 A303 RMK A01 T00531027  RH  056%=      5-min Rain = 0
KMD1 200225Z 34003KT 05/M03 A303 RMK A01 T00521027  RH  057%=      5-min Rain = 0
KMD1 200226Z 33003KT 05/M03 A303 RMK A01 T00511027  RH  057%=      5-min Rain = 0
KMD1 200227Z 33003KT 05/M03 A303 RMK A01 T00491028  RH  057%=      5-min Rain = 0
KMD1 200228Z 33002KT 05/M03 A303 RMK A01 T00491028  RH  057%=      5-min Rain = 0
KMD1 200229Z 33002KT 05/M03 A303 RMK A01 T00491028  RH  058%=      5-min Rain = 0
KMD1 200230Z 33002KT 05/M03 A303 RMK A01 T00481028  RH  058%=      5-min Rain = 0
KMD1 200231Z 33002KT 05/M03 A3031 RMK A01 T00471028  RH  058%=      5-min Rain = 0
KMD1 200232Z 34002KT 05/M03 A3031 RMK A01 T00471028  RH  058%=      5-min Rain = 0
KMD1 200233Z 34002KT 05/M03 A3031 RMK A01 T00481028  RH  058%=      5-min Rain = 0
KMD1 200234Z 35002KT 05/M03 A3031 RMK A01 T00481029  RH  058%=      5-min Rain = 0
KMD1 200235Z 34002KT 05/M03 A3031 RMK A01 T00481029  RH  057%=      5-min Rain = 0
KMD1 200236Z 34001KT 05/M03 A3031 RMK A01 T00481029  RH  057%=      5-min Rain = 0
KMD1 200237Z 34002KT 05/M03 A3031 RMK A01 T00491029  RH  057%=      5-min Rain = 0
KMD1 200238Z 34001KT 05/M03 A3031 RMK A01 T00481029  RH  057%=      5-min Rain = 0
KMD1 200239Z 33000KT 05/M03 A3031 RMK A01 T00481029  RH  057%=      5-min Rain = 0
KMD1 200240Z 32001KT 05/M03 A3031 RMK A01 T00471029  RH  058%=      5-min Rain = 0
KMD1 200241Z 32001KT 05/M03 A3031 RMK A01 T00461028  RH  059%=      5-min Rain = 0
KMD1 200242Z 31001KT 04/M03 A3031 RMK A01 T00441027  RH  060%=      5-min Rain = 0
KMD1 200243Z 32001KT 04/M03 A3031 RMK A01 T00431026  RH  061%=      5-min Rain = 0
KMD1 200244Z 31001KT 04/M03 A3031 RMK A01 T00421026  RH  061%=      5-min Rain = 0
KMD1 200245Z 32002KT 04/M03 A3031 RMK A01 T00401028  RH  061%=      5-min Rain = 0
KMD1 200246Z 32002KT 04/M03 A3031 RMK A01 T00381028  RH  062%=      5-min Rain = 0
KMD1 200247Z 33003KT 04/M03 A3032 RMK A01 T00361028  RH  063%=      5-min Rain = 0
KMD1 200248Z 33002KT 04/M03 A3032 RMK A01 T00351027  RH  064%=      5-min Rain = 0
KMD1 200249Z 33003KT 03/M03 A3032 RMK A01 T00341027  RH  064%=      5-min Rain = 0
KMD1 200250Z 34003KT 04/M03 A3032 RMK A01 T00351028  RH  063%=      5-min Rain = 0
KMD1 200251Z 34003KT 04/M03 A3032 RMK A01 T00381027  RH  062%=      5-min Rain = 0
KMD1 200252Z 34003KT 04/M03 A3032 RMK A01 T00401028  RH  061%=      5-min Rain = 0
KMD1 200253Z 35003KT 04/M03 A3032 RMK A01 T00421027  RH  061%=      5-min Rain = 0
KMD1 200254Z 35002KT 04/M03 A3032 RMK A01 T00421026  RH  061%=      5-min Rain = 0
KMD1 200255Z 34003KT 04/M03 A3032 RMK A01 T00401026  RH  062%=      5-min Rain = 0
KMD1 200256Z 34002KT 04/M03 A3032 RMK A01 T00371025  RH  064%=      5-min Rain = 0
KMD1 200257Z 33003KT 03/M03 A3032 RMK A01 T00341025  RH  065%=      5-min Rain = 0
KMD1 200258Z 32003KT 03/M03 A3032 RMK A01 T00321026  RH  066%=      5-min Rain = 0
KMD1 200259Z 32003KT 03/M03 A3032 RMK A01 T00321026  RH  066%=      5-min Rain = 0
KMD1 200300Z 33003KT 03/M03 A3032 RMK A01 T00321026  RH  066%=      5-min Rain = 0
KMD1 200301Z 32003KT 03/M03 A3032 RMK A01 T00311026  RH  066%=      5-min Rain = 0
KMD1 200302Z 32003KT 03/M03 A3032 RMK A01 T00301025  RH  067%=      5-min Rain = 0
KMD1 200303Z 32003KT 03/M03 A3032 RMK A01 T00291025  RH  067%=      5-min Rain = 0
KMD1 200304Z 31003KT 03/M03 A3032 RMK A01 T00291026  RH  067%=      5-min Rain = 0
KMD1 200305Z 32003KT 03/M03 A3032 RMK A01 T00301025  RH  067%=      5-min Rain = 0
KMD1 200306Z 32004KT 03/M03 A3032 RMK A01 T00311026  RH  067%=      5-min Rain = 0
KMD1 200307Z 33004KT 03/M03 A3032 RMK A01 T00301026  RH  067%=      5-min Rain = 0
KMD1 200308Z 33003KT 03/M03 A3032 RMK A01 T00291027  RH  067%=      5-min Rain = 0
KMD1 200309Z 33003KT 03/M03 A3032 RMK A01 T00291028  RH  066%=      5-min Rain = 0
KMD1 200310Z 34003KT 03/M03 A3032 RMK A01 T00291028  RH  066%=      5-min Rain = 0
KMD1 200311Z 34004KT 03/M03 A3032 RMK A01 T00301027  RH  066%=      5-min Rain = 0
KMD1 200312Z 34004KT 03/M03 A3032 RMK A01 T00311027  RH  066%=      5-min Rain = 0
KMD1 200313Z 33003KT 03/M03 A3032 RMK A01 T00331027  RH  065%=      5-min Rain = 0
KMD1 200314Z 33003KT 03/M03 A3032 RMK A01 T00331028  RH  065%=      5-min Rain = 0
KMD1 200315Z 32003KT 03/M03 A3032 RMK A01 T00311027  RH  066%=      5-min Rain = 0
KMD1 200316Z 33003KT 03/M03 A3032 RMK A01 T00301027  RH  066%=      5-min Rain = 0
KMD1 200317Z 33004KT 03/M03 A3032 RMK A01 T00291027  RH  067%=      5-min Rain = 0
KMD1 200318Z 34004KT 03/M03 A3032 RMK A01 T00291027  RH  067%=      5-min Rain = 0
KMD1 200319Z 34003KT 03/M03 A3032 RMK A01 T00301027  RH  066%=      5-min Rain = 0
KMD1 200320Z 34004KT 03/M03 A3032 RMK A01 T00331028  RH  065%=      5-min Rain = 0
KMD1 200321Z 34004KT 03/M03 A3032 RMK A01 T00341028  RH  064%=      5-min Rain = 0
KMD1 200322Z 34004KT 03/M03 A3032 RMK A01 T00321028  RH  065%=      5-min Rain = 0
KMD1 200323Z 34004KT 03/M03 A3032 RMK A01 T00311028  RH  065%=      5-min Rain = 0
KMD1 200324Z 34003KT 03/M03 A3032 RMK A01 T00301028  RH  066%=      5-min Rain = 0
KMD1 200325Z 34003KT 03/M03 A3032 RMK A01 T00291028  RH  066%=      5-min Rain = 0
KMD1 200326Z 33003KT 03/M03 A3032 RMK A01 T00281028  RH  066%=      5-min Rain = 0
KMD1 200327Z 33003KT 03/M03 A3032 RMK A01 T00281028  RH  067%=      5-min Rain = 0
KMD1 200328Z 33003KT 03/M03 A3032 RMK A01 T00271028  RH  067%=      5-min Rain = 0
KMD1 200329Z 32002KT 03/M03 A3032 RMK A01 T00261028  RH  068%=      5-min Rain = 0
KMD1 200330Z 31002KT 02/M03 A3032 RMK A01 T00241026  RH  070%=      5-min Rain = 0
KMD1 200331Z 31002KT 02/M03 A3032 RMK A01 T00221026  RH  070%=      5-min Rain = 0
KMD1 200332Z 31002KT 02/M03 A3032 RMK A01 T00211027  RH  071%=      5-min Rain = 0
KMD1 200333Z 30001KT 02/M03 A3032 RMK A01 T00201027  RH  071%=      5-min Rain = 0
KMD1 200334Z 31001KT 02/M03 A3032 RMK A01 T00201028  RH  071%=      5-min Rain = 0
KMD1 200335Z 30000KT 02/M03 A3032 RMK A01 T00211028  RH  070%=      5-min Rain = 0
KMD1 200336Z 29000KT 02/M03 A3032 RMK A01 T00221029  RH  069%=      5-min Rain = 0
KMD1 200337Z 00000KT 02/M03 A3032 RMK A01 T00231029  RH  068%=      5-min Rain = 0
KMD1 200338Z 00000KT 02/M03 A3032 RMK A01 T00231029  RH  069%=      5-min Rain = 0
KMD1 200339Z 22000KT 02/M03 A3032 RMK A01 T00211030  RH  069%=      5-min Rain = 0
KMD1 200340Z 22001KT 02/M03 A3032 RMK A01 T00191030  RH  070%=      5-min Rain = 0
KMD1 200341Z 24001KT 02/M03 A3032 RMK A01 T00181028  RH  072%=      5-min Rain = 0
KMD1 200342Z 22001KT 02/M03 A3032 RMK A01 T00161027  RH  073%=      5-min Rain = 0
KMD1 200343Z 22002KT 02/M03 A3031 RMK A01 T00151025  RH  074%=      5-min Rain = 0
KMD1 200344Z 23002KT 02/M02 A3031 RMK A01 T00151023  RH  076%=      5-min Rain = 0
KMD1 200345Z 22002KT 02/M02 A3031 RMK A01 T00151022  RH  076%=      5-min Rain = 0
KMD1 200346Z 22002KT 02/M02 A3031 RMK A01 T00151022  RH  076%=      5-min Rain = 0
KMD1 200347Z 22002KT 02/M02 A3031 RMK A01 T00161022  RH  076%=      5-min Rain = 0
KMD1 200348Z 22002KT 02/M02 A3031 RMK A01 T00161022  RH  076%=      5-min Rain = 0
KMD1 200349Z 22002KT 02/M02 A3031 RMK A01 T00161022  RH  076%=      5-min Rain = 0
KMD1 200350Z 22002KT 02/M02 A3031 RMK A01 T00161023  RH  075%=      5-min Rain = 0
KMD1 200351Z 21002KT 01/M03 A3031 RMK A01 T00131026  RH  075%=      5-min Rain = 0
KMD1 200352Z 22002KT 01/M03 A3031 RMK A01 T00121026  RH  076%=      5-min Rain = 0
KMD1 200353Z 23002KT 01/M03 A3031 RMK A01 T00111026  RH  076%=      5-min Rain = 0
KMD1 200354Z 26001KT 01/M03 A3031 RMK A01 T00091027  RH  077%=      5-min Rain = 0
KMD1 200355Z 26002KT 01/M03 A3031 RMK A01 T00091026  RH  078%=      5-min Rain = 0
KMD1 200356Z 27002KT 01/M03 A3031 RMK A01 T00091026  RH  078%=      5-min Rain = 0
KMD1 200357Z 28002KT 01/M03 A3031 RMK A01 T00101026  RH  077%=      5-min Rain = 0
KMD1 200358Z 28002KT 01/M03 A3031 RMK A01 T00111026  RH  076%=      5-min Rain = 0
KMD1 200359Z 28003KT 01/M03 A3032 RMK A01 T00131027  RH  075%=      5-min Rain = 0
KMD1 200400Z 28003KT 01/M03 A3032 RMK A01 T00131027  RH  074%=      5-min Rain = 0
KMD1 200401Z 29003KT 01/M03 A3032 RMK A01 T00131027  RH  074%=      5-min Rain = 0
KMD1 200402Z 30003KT 01/M03 A3032 RMK A01 T00121028  RH  074%=      5-min Rain = 0
KMD1 200403Z 29002KT 01/M03 A3032 RMK A01 T00121027  RH  075%=      5-min Rain = 0
KMD1 200404Z 30002KT 01/M03 A3032 RMK A01 T00111027  RH  076%=      5-min Rain = 0
KMD1 200405Z 30001KT 01/M03 A3032 RMK A01 T00111027  RH  076%=      5-min Rain = 0
KMD1 200406Z 31001KT 01/M03 A3032 RMK A01 T00101028  RH  076%=      5-min Rain = 0
KMD1 200407Z 32000KT 01/M03 A3032 RMK A01 T00091029  RH  076%=      5-min Rain = 0
KMD1 200408Z 00000KT 01/M03 A3032 RMK A01 T00071030  RH  077%=      5-min Rain = 0
KMD1 200409Z 34000KT 01/M03 A3032 RMK A01 T00051029  RH  078%=      5-min Rain = 0
KMD1 200410Z 34000KT 00/M03 A3032 RMK A01 T00041028  RH  079%=      5-min Rain = 0
KMD1 200411Z 33000KT 00/M03 A3032 RMK A01 T00041028  RH  079%=      5-min Rain = 0
KMD1 200412Z 32000KT 00/M03 A3032 RMK A01 T00041028  RH  079%=      5-min Rain = 0
KMD1 200413Z 00000KT 01/M03 A3032 RMK A01 T00051027  RH  079%=      5-min Rain = 0
KMD1 200414Z 00000KT 01/M03 A3032 RMK A01 T00051027  RH  079%=      5-min Rain = 0
KMD1 200415Z 00000KT 01/M03 A3032 RMK A01 T00051028  RH  079%=      5-min Rain = 0
KMD1 200416Z 03000KT 01/M03 A3032 RMK A01 T00061028  RH  078%=      5-min Rain = 0
KMD1 200417Z 03001KT 01/M03 A3032 RMK A01 T00061028  RH  078%=      5-min Rain = 0
KMD1 200418Z 03002KT 01/M03 A3032 RMK A01 T00071028  RH  077%=      5-min Rain = 0
KMD1 200419Z 02003KT 01/M03 A3033 RMK A01 T00071029  RH  077%=      5-min Rain = 0
KMD1 200420Z 01003KT 01/M03 A3033 RMK A01 T00071028  RH  077%=      5-min Rain = 0
KMD1 200421Z 01003KT 01/M03 A3033 RMK A01 T00081028  RH  077%=      5-min Rain = 0
KMD1 200422Z 01003KT 01/M03 A3033 RMK A01 T00081029  RH  077%=      5-min Rain = 0
KMD1 200423Z 00003KT 01/M03 A3033 RMK A01 T00081029  RH  076%=      5-min Rain = 0
KMD1 200424Z 00003KT 01/M03 A3033 RMK A01 T00081029  RH  077%=      5-min Rain = 0
KMD1 200425Z 36003KT 01/M03 A3033 RMK A01 T00071028  RH  077%=      5-min Rain = 0
KMD1 200426Z 35003KT 01/M03 A3033 RMK A01 T00071028  RH  078%=      5-min Rain = 0
KMD1 200427Z 35003KT 01/M03 A3033 RMK A01 T00071027  RH  078%=      5-min Rain = 0
KMD1 200428Z 36002KT 01/M03 A3033 RMK A01 T00061027  RH  078%=      5-min Rain = 0
KMD1 200429Z 35002KT 01/M03 A3033 RMK A01 T00061028  RH  078%=      5-min Rain = 0
KMD1 200430Z 34002KT 01/M03 A3033 RMK A01 T00061028  RH  078%=      5-min Rain = 0
KMD1 200431Z 34002KT 01/M03 A3033 RMK A01 T00061028  RH  078%=      5-min Rain = 0
KMD1 200432Z 35001KT 01/M03 A3033 RMK A01 T00061028  RH  078%=      5-min Rain = 0
KMD1 200433Z 00000KT 01/M03 A3033 RMK A01 T00051030  RH  077%=      5-min Rain = 0
KMD1 200434Z 21001KT 00/M03 A3033 RMK A01 T00041029  RH  079%=      5-min Rain = 0
KMD1 200435Z 20002KT 00/M03 A3033 RMK A01 T00031028  RH  080%=      5-min Rain = 0
KMD1 200436Z 21002KT 00/M03 A3034 RMK A01 T00041026  RH  081%=      5-min Rain = 0
KMD1 200437Z 21002KT 00/M03 A3034 RMK A01 T00031025  RH  081%=      5-min Rain = 0
KMD1 200438Z 19002KT 00/M03 A3034 RMK A01 T00041025  RH  081%=      5-min Rain = 0
KMD1 200439Z 19002KT 00/M03 A3034 RMK A01 T00041025  RH  081%=      5-min Rain = 0
KMD1 200440Z 19002KT 00/M02 A3034 RMK A01 T00041024  RH  081%=      5-min Rain = 0
KMD1 200441Z 20001KT 00/M03 A3034 RMK A01 T00031025  RH  082%=      5-min Rain = 0
KMD1 200442Z 20001KT 00/M03 A3034 RMK A01 T00021025  RH  082%=      5-min Rain = 0
KMD1 200443Z 21001KT 00/03 A3034 RMK A01 T00000-27  RH  082%=      5-min Rain = 0
KMD1 200444Z 21002KT 00/03 A3034 RMK A01 T00-00-26  RH  083%=      5-min Rain = 0
KMD1 200445Z 21001KT 00/02 A3034 RMK A01 T00-00-24  RH  084%=      5-min Rain = 0
KMD1 200446Z 00000KT M00/M02 A3034 RMK A01 T10011024  RH  084%=      5-min Rain = 0
KMD1 200447Z 00000KT M00/M02 A3034 RMK A01 T10011024  RH  084%=      5-min Rain = 0
KMD1 200448Z 00000KT M00/M02 A3034 RMK A01 T10011024  RH  084%=      5-min Rain = 0
KMD1 200449Z 00000KT M00/M03 A3034 RMK A01 T10011026  RH  083%=      5-min Rain = 0
KMD1 200450Z 00000KT 00/03 A3034 RMK A01 T00-00-26  RH  083%=      5-min Rain = 0
KMD1 200451Z 29001KT 00/03 A3034 RMK A01 T00-00-27  RH  082%=      5-min Rain = 0
KMD1 200452Z 32001KT M00/M03 A3034 RMK A01 T10011027  RH  082%=      5-min Rain = 0
KMD1 200453Z 33000KT M00/M03 A3034 RMK A01 T10011027  RH  082%=      5-min Rain = 0
KMD1 200454Z 33000KT M00/M03 A3034 RMK A01 T10011028  RH  082%=      5-min Rain = 0
KMD1 200455Z 34000KT M00/M03 A3034 RMK A01 T10011027  RH  082%=      5-min Rain = 0
KMD1 200456Z 35001KT 00/M03 A3034 RMK A01 T00011026  RH  082%=      5-min Rain = 0
KMD1 200457Z 34001KT 00/03 A3034 RMK A01 T00000-27  RH  082%=      5-min Rain = 0
KMD1 200458Z 35001KT 00/M03 A3034 RMK A01 T00011027  RH  082%=      5-min Rain = 0
KMD1 200459Z 35002KT 00/M03 A3034 RMK A01 T00011027  RH  082%=      5-min Rain = 0
KMD1 200500Z 34001KT 00/M03 A3034 RMK A01 T00031026  RH  081%=      5-min Rain = 0
KMD1 200501Z 34001KT 00/M03 A3034 RMK A01 T00041025  RH  081%=      5-min Rain = 0
KMD1 200502Z 34001KT 01/M03 A3034 RMK A01 T00051026  RH  080%=      5-min Rain = 0
KMD1 200503Z 34001KT 00/M03 A3034 RMK A01 T00041027  RH  079%=      5-min Rain = 0
KMD1 200504Z 34000KT 00/M03 A3034 RMK A01 T00041029  RH  079%=      5-min Rain = 0
KMD1 200505Z 00000KT 00/M03 A3034 RMK A01 T00021030  RH  079%=      5-min Rain = 0
KMD1 200506Z 00000KT 00/M03 A3034 RMK A01 T00021030  RH  079%=      5-min Rain = 0
KMD1 200507Z 31000KT 00/M03 A3035 RMK A01 T00021030  RH  079%=      5-min Rain = 0
KMD1 200508Z 31001KT 00/M03 A3035 RMK A01 T00021031  RH  079%=      5-min Rain = 0
KMD1 200509Z 31001KT 00/M03 A3035 RMK A01 T00021031  RH  079%=      5-min Rain = 0
KMD1 200510Z 32001KT 00/M03 A3035 RMK A01 T00021030  RH  079%=      5-min Rain = 0
KMD1 200511Z 32001KT 00/M03 A3035 RMK A01 T00011030  RH  079%=      5-min Rain = 0
KMD1 200512Z 30000KT 00/M03 A3035 RMK A01 T00011030  RH  080%=      5-min Rain = 0
KMD1 200513Z 29000KT 00/M03 A3035 RMK A01 T00011030  RH  080%=      5-min Rain = 0
KMD1 200514Z 00000KT 00/M03 A3035 RMK A01 T00011029  RH  081%=      5-min Rain = 0
KMD1 200515Z 00000KT 00/03 A3035 RMK A01 T00000-29  RH  081%=      5-min Rain = 0
KMD1 200516Z 23000KT M00/M03 A3035 RMK A01 T10031034  RH  080%=      5-min Rain = 0
KMD1 200517Z 24001KT M01/M04 A3035 RMK A01 T10061035  RH  081%=      5-min Rain = 0
KMD1 200518Z 25002KT M01/M03 A3035 RMK A01 T10081034  RH  083%=      5-min Rain = 0
KMD1 200519Z 24001KT M01/M03 A3035 RMK A01 T10091033  RH  084%=      5-min Rain = 0
KMD1 200520Z 25001KT M01/M03 A3035 RMK A01 T10091032  RH  085%=      5-min Rain = 0
KMD1 200521Z 24001KT M01/M03 A3036 RMK A01 T10091031  RH  085%=      5-min Rain = 0
KMD1 200522Z 25001KT M01/M03 A3036 RMK A01 T10091030  RH  086%=      5-min Rain = 0
KMD1 200523Z 25001KT M01/M03 A3036 RMK A01 T10101030  RH  086%=      5-min Rain = 0
KMD1 200524Z 26000KT M01/M03 A3036 RMK A01 T10101030  RH  087%=      5-min Rain = 0
KMD1 200525Z 00000KT M01/M03 A3036 RMK A01 T10101030  RH  087%=      5-min Rain = 0
KMD1 200526Z 00000KT M01/M03 A3036 RMK A01 T10111030  RH  087%=      5-min Rain = 0
KMD1 200527Z 00000KT M01/M03 A3036 RMK A01 T10111030  RH  087%=      5-min Rain = 0
KMD1 200528Z 07000KT M01/M03 A3036 RMK A01 T10111030  RH  087%=      5-min Rain = 0
KMD1 200529Z 07001KT M01/M03 A3036 RMK A01 T10121030  RH  087%=      5-min Rain = 0
KMD1 200530Z 06002KT M01/M03 A3036 RMK A01 T10121029  RH  088%=      5-min Rain = 0
KMD1 200531Z 06002KT M01/M03 A3036 RMK A01 T10121029  RH  088%=      5-min Rain = 0
KMD1 200532Z 06001KT M01/M03 A3036 RMK A01 T10121030  RH  087%=      5-min Rain = 0
KMD1 200533Z 05001KT M01/M03 A3036 RMK A01 T10111030  RH  087%=      5-min Rain = 0
KMD1 200534Z 04001KT M01/M03 A3036 RMK A01 T10111030  RH  087%=      5-min Rain = 0
KMD1 200535Z 04001KT M01/M03 A3036 RMK A01 T10111029  RH  087%=      5-min Rain = 0
KMD1 200536Z 06000KT M01/M03 A3035 RMK A01 T10101029  RH  087%=      5-min Rain = 0
KMD1 200537Z 09000KT M01/M03 A3035 RMK A01 T10111030  RH  087%=      5-min Rain = 0
KMD1 200538Z 11000KT M01/M03 A3035 RMK A01 T10111030  RH  087%=      5-min Rain = 0
KMD1 200539Z 11000KT M01/M03 A3036 RMK A01 T10111030  RH  087%=      5-min Rain = 0
KMD1 200540Z 00000KT M01/M03 A3036 RMK A01 T10111030  RH  087%=      5-min Rain = 0
KMD1 200541Z 00000KT M01/M03 A3036 RMK A01 T10111030  RH  087%=      5-min Rain = 0
KMD1 200542Z 00000KT M01/M03 A3036 RMK A01 T10111030  RH  087%=      5-min Rain = 0
KMD1 200543Z 20000KT M01/M03 A3036 RMK A01 T10111031  RH  087%=      5-min Rain = 0
KMD1 200544Z 20001KT M01/M03 A3036 RMK A01 T10121031  RH  087%=      5-min Rain = 0
KMD1 200545Z 20001KT M01/M03 A3036 RMK A01 T10121031  RH  087%=      5-min Rain = 0
KMD1 200546Z 22001KT M01/M03 A3036 RMK A01 T10121031  RH  087%=      5-min Rain = 0
KMD1 200547Z 23001KT M01/M03 A3036 RMK A01 T10131031  RH  087%=      5-min Rain = 0
KMD1 200548Z 22002KT M01/M03 A3036 RMK A01 T10131031  RH  088%=      5-min Rain = 0
KMD1 200549Z 22001KT M01/M03 A3036 RMK A01 T10131030  RH  088%=      5-min Rain = 0
KMD1 200550Z 22001KT M01/M03 A3036 RMK A01 T10131030  RH  088%=      5-min Rain = 0
KMD1 200551Z 22001KT M01/M03 A3036 RMK A01 T10131030  RH  088%=      5-min Rain = 0
KMD1 200552Z 22001KT M01/M03 A3036 RMK A01 T10141031  RH  088%=      5-min Rain = 0
KMD1 200553Z 23001KT M01/M03 A3036 RMK A01 T10141032  RH  088%=      5-min Rain = 0
KMD1 200554Z 24001KT M02/M03 A3036 RMK A01 T10161033  RH  088%=      5-min Rain = 0
KMD1 200555Z 25001KT M02/M03 A3036 RMK A01 T10171034  RH  088%=      5-min Rain = 0
KMD1 200556Z 25001KT M02/M04 A3036 RMK A01 T10181035  RH  088%=      5-min Rain = 0
KMD1 200557Z 26001KT M02/M04 A3036 RMK A01 T10191035  RH  089%=      5-min Rain = 0
KMD1 200558Z 26001KT M02/M04 A3036 RMK A01 T10191035  RH  089%=      5-min Rain = 0
KMD1 200559Z 00000KT M02/M03 A3036 RMK A01 T10191034  RH  089%=      5-min Rain = 0

Page generated in 0.1465 seconds.